<?xml version="1.0" encoding="UTF-8" ?>
<gpx version="1.1" xmlns:xsi="http://www.w3.org/2001/XMLSchema-instance" 
    xmlns="http://www.topografix.com/GPX/1/1" 
    xsi:schemaLocation="http://www.topografix.com/GPX/1/1 http://www.topografix.com/GPX/1/1/gpx.xsd" 
    creator="Openrunner - https://www.openrunner.com" >	<trk>
						<name>12498690-Voie Verte la Bressane </name>
						<trkseg>
					<trkpt lat="46.670600" lon="5.545370">
						<ele>258</ele>
						<time>2021-02-03T11:03:59Z</time>
					</trkpt>
					<trkpt lat="46.670480" lon="5.545070">
						<ele>258</ele>
						<time>2021-02-03T11:04:03Z</time>
					</trkpt>
					<trkpt lat="46.670370" lon="5.544910">
						<ele>258</ele>
						<time>2021-02-03T11:04:06Z</time>
					</trkpt>
					<trkpt lat="46.670100" lon="5.544320">
						<ele>259</ele>
						<time>2021-02-03T11:04:15Z</time>
					</trkpt>
					<trkpt lat="46.670070" lon="5.544200">
						<ele>260</ele>
						<time>2021-02-03T11:04:16Z</time>
					</trkpt>
					<trkpt lat="46.670080" lon="5.544110">
						<ele>260</ele>
						<time>2021-02-03T11:04:17Z</time>
					</trkpt>
					<trkpt lat="46.670620" lon="5.542520">
						<ele>261</ele>
						<time>2021-02-03T11:04:39Z</time>
					</trkpt>
					<trkpt lat="46.671220" lon="5.540580">
						<ele>263</ele>
						<time>2021-02-03T11:05:05Z</time>
					</trkpt>
					<trkpt lat="46.671350" lon="5.540430">
						<ele>264</ele>
						<time>2021-02-03T11:05:08Z</time>
					</trkpt>
					<trkpt lat="46.671310" lon="5.540190">
						<ele>266</ele>
						<time>2021-02-03T11:05:11Z</time>
					</trkpt>
					<trkpt lat="46.671320" lon="5.540110">
						<ele>266</ele>
						<time>2021-02-03T11:05:12Z</time>
					</trkpt>
					<trkpt lat="46.671550" lon="5.539320">
						<ele>267</ele>
						<time>2021-02-03T11:05:22Z</time>
					</trkpt>
					<trkpt lat="46.671550" lon="5.539070">
						<ele>268</ele>
						<time>2021-02-03T11:05:25Z</time>
					</trkpt>
					<trkpt lat="46.671640" lon="5.538730">
						<ele>268</ele>
						<time>2021-02-03T11:05:30Z</time>
					</trkpt>
					<trkpt lat="46.671730" lon="5.538510">
						<ele>267</ele>
						<time>2021-02-03T11:05:33Z</time>
					</trkpt>
					<trkpt lat="46.672110" lon="5.537120">
						<ele>263</ele>
						<time>2021-02-03T11:05:51Z</time>
					</trkpt>
					<trkpt lat="46.672690" lon="5.534960">
						<ele>262</ele>
						<time>2021-02-03T11:06:20Z</time>
					</trkpt>
					<trkpt lat="46.672780" lon="5.534500">
						<ele>261</ele>
						<time>2021-02-03T11:06:25Z</time>
					</trkpt>
					<trkpt lat="46.672830" lon="5.533900">
						<ele>260</ele>
						<time>2021-02-03T11:06:33Z</time>
					</trkpt>
					<trkpt lat="46.672830" lon="5.533380">
						<ele>261</ele>
						<time>2021-02-03T11:06:39Z</time>
					</trkpt>
					<trkpt lat="46.672630" lon="5.528990">
						<ele>256</ele>
						<time>2021-02-03T11:07:33Z</time>
					</trkpt>
					<trkpt lat="46.672500" lon="5.526800">
						<ele>252</ele>
						<time>2021-02-03T11:08:00Z</time>
					</trkpt>
					<trkpt lat="46.672500" lon="5.525820">
						<ele>250</ele>
						<time>2021-02-03T11:08:12Z</time>
					</trkpt>
					<trkpt lat="46.672610" lon="5.524990">
						<ele>250</ele>
						<time>2021-02-03T11:08:22Z</time>
					</trkpt>
					<trkpt lat="46.672660" lon="5.524680">
						<ele>251</ele>
						<time>2021-02-03T11:08:26Z</time>
					</trkpt>
					<trkpt lat="46.672870" lon="5.523770">
						<ele>257</ele>
						<time>2021-02-03T11:08:38Z</time>
					</trkpt>
					<trkpt lat="46.672970" lon="5.523470">
						<ele>260</ele>
						<time>2021-02-03T11:08:42Z</time>
					</trkpt>
					<trkpt lat="46.673810" lon="5.521300">
						<ele>257</ele>
						<time>2021-02-03T11:09:12Z</time>
					</trkpt>
					<trkpt lat="46.674690" lon="5.518860">
						<ele>250</ele>
						<time>2021-02-03T11:09:46Z</time>
					</trkpt>
					<trkpt lat="46.674870" lon="5.518250">
						<ele>248</ele>
						<time>2021-02-03T11:09:54Z</time>
					</trkpt>
					<trkpt lat="46.675030" lon="5.517650">
						<ele>247</ele>
						<time>2021-02-03T11:10:02Z</time>
					</trkpt>
					<trkpt lat="46.675200" lon="5.516770">
						<ele>250</ele>
						<time>2021-02-03T11:10:13Z</time>
					</trkpt>
					<trkpt lat="46.675400" lon="5.515350">
						<ele>261</ele>
						<time>2021-02-03T11:10:31Z</time>
					</trkpt>
					<trkpt lat="46.676130" lon="5.503370">
						<ele>235</ele>
						<time>2021-02-03T11:12:57Z</time>
					</trkpt>
					<trkpt lat="46.676140" lon="5.502880">
						<ele>236</ele>
						<time>2021-02-03T11:13:03Z</time>
					</trkpt>
					<trkpt lat="46.676090" lon="5.502070">
						<ele>237</ele>
						<time>2021-02-03T11:13:13Z</time>
					</trkpt>
					<trkpt lat="46.675910" lon="5.501000">
						<ele>239</ele>
						<time>2021-02-03T11:13:27Z</time>
					</trkpt>
					<trkpt lat="46.675610" lon="5.500020">
						<ele>241</ele>
						<time>2021-02-03T11:13:40Z</time>
					</trkpt>
					<trkpt lat="46.675190" lon="5.498870">
						<ele>240</ele>
						<time>2021-02-03T11:13:56Z</time>
					</trkpt>
					<trkpt lat="46.674920" lon="5.498040">
						<ele>239</ele>
						<time>2021-02-03T11:14:07Z</time>
					</trkpt>
					<trkpt lat="46.674720" lon="5.497160">
						<ele>239</ele>
						<time>2021-02-03T11:14:18Z</time>
					</trkpt>
					<trkpt lat="46.674620" lon="5.496140">
						<ele>238</ele>
						<time>2021-02-03T11:14:31Z</time>
					</trkpt>
					<trkpt lat="46.674600" lon="5.495630">
						<ele>238</ele>
						<time>2021-02-03T11:14:37Z</time>
					</trkpt>
					<trkpt lat="46.674610" lon="5.495110">
						<ele>238</ele>
						<time>2021-02-03T11:14:44Z</time>
					</trkpt>
					<trkpt lat="46.674510" lon="5.495100">
						<ele>238</ele>
						<time>2021-02-03T11:14:45Z</time>
					</trkpt>
					<trkpt lat="46.674460" lon="5.495120">
						<ele>238</ele>
						<time>2021-02-03T11:14:46Z</time>
					</trkpt>
					<trkpt lat="46.674410" lon="5.495180">
						<ele>238</ele>
						<time>2021-02-03T11:14:47Z</time>
					</trkpt>
					<trkpt lat="46.674360" lon="5.495310">
						<ele>238</ele>
						<time>2021-02-03T11:14:49Z</time>
					</trkpt>
					<trkpt lat="46.674260" lon="5.495250">
						<ele>237</ele>
						<time>2021-02-03T11:14:51Z</time>
					</trkpt>
					<trkpt lat="46.674210" lon="5.495130">
						<ele>237</ele>
						<time>2021-02-03T11:14:53Z</time>
					</trkpt>
					<trkpt lat="46.674000" lon="5.494030">
						<ele>236</ele>
						<time>2021-02-03T11:15:07Z</time>
					</trkpt>
					<trkpt lat="46.673880" lon="5.493620">
						<ele>236</ele>
						<time>2021-02-03T11:15:12Z</time>
					</trkpt>
					<trkpt lat="46.673760" lon="5.493320">
						<ele>236</ele>
						<time>2021-02-03T11:15:16Z</time>
					</trkpt>
					<trkpt lat="46.673420" lon="5.492650">
						<ele>234</ele>
						<time>2021-02-03T11:15:27Z</time>
					</trkpt>
					<trkpt lat="46.672950" lon="5.491830">
						<ele>232</ele>
						<time>2021-02-03T11:15:40Z</time>
					</trkpt>
					<trkpt lat="46.672830" lon="5.491580">
						<ele>231</ele>
						<time>2021-02-03T11:15:43Z</time>
					</trkpt>
					<trkpt lat="46.672630" lon="5.491080">
						<ele>231</ele>
						<time>2021-02-03T11:15:50Z</time>
					</trkpt>
					<trkpt lat="46.672540" lon="5.490740">
						<ele>231</ele>
						<time>2021-02-03T11:15:55Z</time>
					</trkpt>
					<trkpt lat="46.672470" lon="5.490160">
						<ele>231</ele>
						<time>2021-02-03T11:16:02Z</time>
					</trkpt>
					<trkpt lat="46.672380" lon="5.489870">
						<ele>230</ele>
						<time>2021-02-03T11:16:06Z</time>
					</trkpt>
					<trkpt lat="46.672280" lon="5.489720">
						<ele>230</ele>
						<time>2021-02-03T11:16:09Z</time>
					</trkpt>
					<trkpt lat="46.672190" lon="5.489460">
						<ele>229</ele>
						<time>2021-02-03T11:16:12Z</time>
					</trkpt>
					<trkpt lat="46.672020" lon="5.489220">
						<ele>228</ele>
						<time>2021-02-03T11:16:16Z</time>
					</trkpt>
					<trkpt lat="46.671740" lon="5.490060">
						<ele>226</ele>
						<time>2021-02-03T11:16:28Z</time>
					</trkpt>
					<trkpt lat="46.671650" lon="5.489910">
						<ele>225</ele>
						<time>2021-02-03T11:16:30Z</time>
					</trkpt>
					<trkpt lat="46.671410" lon="5.489050">
						<ele>225</ele>
						<time>2021-02-03T11:16:41Z</time>
					</trkpt>
					<trkpt lat="46.670930" lon="5.487540">
						<ele>224</ele>
						<time>2021-02-03T11:17:02Z</time>
					</trkpt>
					<trkpt lat="46.670430" lon="5.486570">
						<ele>225</ele>
						<time>2021-02-03T11:17:17Z</time>
					</trkpt>
					<trkpt lat="46.670020" lon="5.485410">
						<ele>225</ele>
						<time>2021-02-03T11:17:33Z</time>
					</trkpt>
					<trkpt lat="46.669790" lon="5.484680">
						<ele>225</ele>
						<time>2021-02-03T11:17:42Z</time>
					</trkpt>
					<trkpt lat="46.669730" lon="5.484400">
						<ele>226</ele>
						<time>2021-02-03T11:17:46Z</time>
					</trkpt>
					<trkpt lat="46.669060" lon="5.483040">
						<ele>228</ele>
						<time>2021-02-03T11:18:06Z</time>
					</trkpt>
					<trkpt lat="46.669020" lon="5.482890">
						<ele>228</ele>
						<time>2021-02-03T11:18:08Z</time>
					</trkpt>
					<trkpt lat="46.668870" lon="5.481890">
						<ele>229</ele>
						<time>2021-02-03T11:18:21Z</time>
					</trkpt>
					<trkpt lat="46.668870" lon="5.481670">
						<ele>229</ele>
						<time>2021-02-03T11:18:24Z</time>
					</trkpt>
					<trkpt lat="46.668770" lon="5.481590">
						<ele>229</ele>
						<time>2021-02-03T11:18:26Z</time>
					</trkpt>
					<trkpt lat="46.668400" lon="5.481170">
						<ele>229</ele>
						<time>2021-02-03T11:18:34Z</time>
					</trkpt>
					<trkpt lat="46.667960" lon="5.480970">
						<ele>228</ele>
						<time>2021-02-03T11:18:42Z</time>
					</trkpt>
					<trkpt lat="46.665890" lon="5.479850">
						<ele>228</ele>
						<time>2021-02-03T11:19:21Z</time>
					</trkpt>
					<trkpt lat="46.665700" lon="5.479790">
						<ele>228</ele>
						<time>2021-02-03T11:19:25Z</time>
					</trkpt>
					<trkpt lat="46.665640" lon="5.479650">
						<ele>227</ele>
						<time>2021-02-03T11:19:27Z</time>
					</trkpt>
					<trkpt lat="46.665950" lon="5.477550">
						<ele>227</ele>
						<time>2021-02-03T11:19:53Z</time>
					</trkpt>
					<trkpt lat="46.666180" lon="5.476120">
						<ele>227</ele>
						<time>2021-02-03T11:20:11Z</time>
					</trkpt>
					<trkpt lat="46.666330" lon="5.475340">
						<ele>226</ele>
						<time>2021-02-03T11:20:21Z</time>
					</trkpt>
					<trkpt lat="46.666720" lon="5.474390">
						<ele>222</ele>
						<time>2021-02-03T11:20:34Z</time>
					</trkpt>
					<trkpt lat="46.666920" lon="5.474080">
						<ele>220</ele>
						<time>2021-02-03T11:20:40Z</time>
					</trkpt>
					<trkpt lat="46.667370" lon="5.473570">
						<ele>219</ele>
						<time>2021-02-03T11:20:50Z</time>
					</trkpt>
					<trkpt lat="46.667520" lon="5.473310">
						<ele>219</ele>
						<time>2021-02-03T11:20:54Z</time>
					</trkpt>
					<trkpt lat="46.667580" lon="5.473100">
						<ele>220</ele>
						<time>2021-02-03T11:20:57Z</time>
					</trkpt>
					<trkpt lat="46.667570" lon="5.472820">
						<ele>222</ele>
						<time>2021-02-03T11:21:00Z</time>
					</trkpt>
					<trkpt lat="46.667470" lon="5.472380">
						<ele>223</ele>
						<time>2021-02-03T11:21:06Z</time>
					</trkpt>
					<trkpt lat="46.667250" lon="5.471750">
						<ele>224</ele>
						<time>2021-02-03T11:21:14Z</time>
					</trkpt>
					<trkpt lat="46.666530" lon="5.469990">
						<ele>226</ele>
						<time>2021-02-03T11:21:39Z</time>
					</trkpt>
					<trkpt lat="46.666440" lon="5.469830">
						<ele>225</ele>
						<time>2021-02-03T11:21:42Z</time>
					</trkpt>
					<trkpt lat="46.666330" lon="5.469960">
						<ele>225</ele>
						<time>2021-02-03T11:21:44Z</time>
					</trkpt>
					<trkpt lat="46.666200" lon="5.470020">
						<ele>225</ele>
						<time>2021-02-03T11:21:47Z</time>
					</trkpt>
					<trkpt lat="46.665750" lon="5.470060">
						<ele>223</ele>
						<time>2021-02-03T11:21:55Z</time>
					</trkpt>
					<trkpt lat="46.665210" lon="5.470040">
						<ele>220</ele>
						<time>2021-02-03T11:22:05Z</time>
					</trkpt>
					<trkpt lat="46.665030" lon="5.470000">
						<ele>219</ele>
						<time>2021-02-03T11:22:08Z</time>
					</trkpt>
					<trkpt lat="46.664960" lon="5.469940">
						<ele>219</ele>
						<time>2021-02-03T11:22:09Z</time>
					</trkpt>
					<trkpt lat="46.664630" lon="5.466250">
						<ele>220</ele>
						<time>2021-02-03T11:22:55Z</time>
					</trkpt>
					<trkpt lat="46.664560" lon="5.465730">
						<ele>219</ele>
						<time>2021-02-03T11:23:01Z</time>
					</trkpt>
					<trkpt lat="46.664150" lon="5.463810">
						<ele>217</ele>
						<time>2021-02-03T11:23:26Z</time>
					</trkpt>
					<trkpt lat="46.664100" lon="5.463410">
						<ele>217</ele>
						<time>2021-02-03T11:23:31Z</time>
					</trkpt>
					<trkpt lat="46.664050" lon="5.462960">
						<ele>217</ele>
						<time>2021-02-03T11:23:36Z</time>
					</trkpt>
					<trkpt lat="46.664040" lon="5.462180">
						<ele>217</ele>
						<time>2021-02-03T11:23:46Z</time>
					</trkpt>
					<trkpt lat="46.664320" lon="5.459520">
						<ele>216</ele>
						<time>2021-02-03T11:24:19Z</time>
					</trkpt>
					<trkpt lat="46.664800" lon="5.451730">
						<ele>213</ele>
						<time>2021-02-03T11:25:54Z</time>
					</trkpt>
					<trkpt lat="46.665070" lon="5.448960">
						<ele>211</ele>
						<time>2021-02-03T11:26:28Z</time>
					</trkpt>
					<trkpt lat="46.665100" lon="5.448250">
						<ele>210</ele>
						<time>2021-02-03T11:26:37Z</time>
					</trkpt>
					<trkpt lat="46.665080" lon="5.447730">
						<ele>210</ele>
						<time>2021-02-03T11:26:43Z</time>
					</trkpt>
					<trkpt lat="46.664880" lon="5.444640">
						<ele>211</ele>
						<time>2021-02-03T11:27:21Z</time>
					</trkpt>
					<trkpt lat="46.664700" lon="5.443340">
						<ele>210</ele>
						<time>2021-02-03T11:27:37Z</time>
					</trkpt>
					<trkpt lat="46.664400" lon="5.442320">
						<ele>211</ele>
						<time>2021-02-03T11:27:51Z</time>
					</trkpt>
					<trkpt lat="46.664240" lon="5.441970">
						<ele>212</ele>
						<time>2021-02-03T11:27:56Z</time>
					</trkpt>
					<trkpt lat="46.663440" lon="5.440510">
						<ele>210</ele>
						<time>2021-02-03T11:28:19Z</time>
					</trkpt>
					<trkpt lat="46.663140" lon="5.439830">
						<ele>209</ele>
						<time>2021-02-03T11:28:29Z</time>
					</trkpt>
					<trkpt lat="46.662960" lon="5.439280">
						<ele>210</ele>
						<time>2021-02-03T11:28:36Z</time>
					</trkpt>
					<trkpt lat="46.662720" lon="5.438200">
						<ele>211</ele>
						<time>2021-02-03T11:28:50Z</time>
					</trkpt>
					<trkpt lat="46.662640" lon="5.437740">
						<ele>209</ele>
						<time>2021-02-03T11:28:56Z</time>
					</trkpt>
					<trkpt lat="46.662530" lon="5.436770">
						<ele>208</ele>
						<time>2021-02-03T11:29:08Z</time>
					</trkpt>
					<trkpt lat="46.662510" lon="5.436350">
						<ele>208</ele>
						<time>2021-02-03T11:29:13Z</time>
					</trkpt>
					<trkpt lat="46.662720" lon="5.432350">
						<ele>208</ele>
						<time>2021-02-03T11:30:02Z</time>
					</trkpt>
					<trkpt lat="46.662710" lon="5.431870">
						<ele>208</ele>
						<time>2021-02-03T11:30:08Z</time>
					</trkpt>
					<trkpt lat="46.662630" lon="5.431000">
						<ele>208</ele>
						<time>2021-02-03T11:30:19Z</time>
					</trkpt>
					<trkpt lat="46.662520" lon="5.430420">
						<ele>207</ele>
						<time>2021-02-03T11:30:26Z</time>
					</trkpt>
					<trkpt lat="46.662400" lon="5.429940">
						<ele>205</ele>
						<time>2021-02-03T11:30:32Z</time>
					</trkpt>
					<trkpt lat="46.662150" lon="5.429320">
						<ele>205</ele>
						<time>2021-02-03T11:30:41Z</time>
					</trkpt>
					<trkpt lat="46.661930" lon="5.428870">
						<ele>205</ele>
						<time>2021-02-03T11:30:48Z</time>
					</trkpt>
					<trkpt lat="46.659850" lon="5.425340">
						<ele>207</ele>
						<time>2021-02-03T11:31:44Z</time>
					</trkpt>
					<trkpt lat="46.659540" lon="5.424660">
						<ele>206</ele>
						<time>2021-02-03T11:31:54Z</time>
					</trkpt>
					<trkpt lat="46.659340" lon="5.423970">
						<ele>205</ele>
						<time>2021-02-03T11:32:04Z</time>
					</trkpt>
					<trkpt lat="46.658980" lon="5.421920">
						<ele>204</ele>
						<time>2021-02-03T11:32:29Z</time>
					</trkpt>
					<trkpt lat="46.658810" lon="5.421330">
						<ele>204</ele>
						<time>2021-02-03T11:32:37Z</time>
					</trkpt>
					<trkpt lat="46.658610" lon="5.420820">
						<ele>203</ele>
						<time>2021-02-03T11:32:44Z</time>
					</trkpt>
					<trkpt lat="46.658310" lon="5.420230">
						<ele>203</ele>
						<time>2021-02-03T11:32:53Z</time>
					</trkpt>
					<trkpt lat="46.657130" lon="5.418620">
						<ele>205</ele>
						<time>2021-02-03T11:33:22Z</time>
					</trkpt>
					<trkpt lat="46.656690" lon="5.417900">
						<ele>204</ele>
						<time>2021-02-03T11:33:34Z</time>
					</trkpt>
					<trkpt lat="46.656530" lon="5.417530">
						<ele>203</ele>
						<time>2021-02-03T11:33:39Z</time>
					</trkpt>
					<trkpt lat="46.656420" lon="5.417170">
						<ele>203</ele>
						<time>2021-02-03T11:33:44Z</time>
					</trkpt>
					<trkpt lat="46.656360" lon="5.416900">
						<ele>204</ele>
						<time>2021-02-03T11:33:48Z</time>
					</trkpt>
					<trkpt lat="46.656360" lon="5.416730">
						<ele>204</ele>
						<time>2021-02-03T11:33:50Z</time>
					</trkpt>
					<trkpt lat="46.656600" lon="5.417050">
						<ele>204</ele>
						<time>2021-02-03T11:33:55Z</time>
					</trkpt>
					<trkpt lat="46.657440" lon="5.418560">
						<ele>206</ele>
						<time>2021-02-03T11:34:19Z</time>
					</trkpt>
					<trkpt lat="46.657740" lon="5.418920">
						<ele>206</ele>
						<time>2021-02-03T11:34:26Z</time>
					</trkpt>
					<trkpt lat="46.658370" lon="5.417540">
						<ele>213</ele>
						<time>2021-02-03T11:34:46Z</time>
					</trkpt>
					<trkpt lat="46.658380" lon="5.417400">
						<ele>213</ele>
						<time>2021-02-03T11:34:48Z</time>
					</trkpt>
					<trkpt lat="46.658330" lon="5.417290">
						<ele>213</ele>
						<time>2021-02-03T11:34:50Z</time>
					</trkpt>
					<trkpt lat="46.658240" lon="5.417180">
						<ele>213</ele>
						<time>2021-02-03T11:34:52Z</time>
					</trkpt>
					<trkpt lat="46.657870" lon="5.416910">
						<ele>211</ele>
						<time>2021-02-03T11:34:59Z</time>
					</trkpt>
					<trkpt lat="46.657770" lon="5.416800">
						<ele>211</ele>
						<time>2021-02-03T11:35:01Z</time>
					</trkpt>
					<trkpt lat="46.657390" lon="5.415890">
						<ele>211</ele>
						<time>2021-02-03T11:35:14Z</time>
					</trkpt>
					<trkpt lat="46.657160" lon="5.414820">
						<ele>211</ele>
						<time>2021-02-03T11:35:28Z</time>
					</trkpt>
					<trkpt lat="46.657010" lon="5.414420">
						<ele>210</ele>
						<time>2021-02-03T11:35:34Z</time>
					</trkpt>
					<trkpt lat="46.656890" lon="5.414180">
						<ele>210</ele>
						<time>2021-02-03T11:35:37Z</time>
					</trkpt>
					<trkpt lat="46.656530" lon="5.413750">
						<ele>209</ele>
						<time>2021-02-03T11:35:46Z</time>
					</trkpt>
					<trkpt lat="46.655800" lon="5.412670">
						<ele>209</ele>
						<time>2021-02-03T11:36:04Z</time>
					</trkpt>
					<trkpt lat="46.655660" lon="5.412530">
						<ele>209</ele>
						<time>2021-02-03T11:36:07Z</time>
					</trkpt>
					<trkpt lat="46.655590" lon="5.412510">
						<ele>209</ele>
						<time>2021-02-03T11:36:08Z</time>
					</trkpt>
					<trkpt lat="46.655430" lon="5.412530">
						<ele>207</ele>
						<time>2021-02-03T11:36:11Z</time>
					</trkpt>
					<trkpt lat="46.655310" lon="5.412600">
						<ele>207</ele>
						<time>2021-02-03T11:36:13Z</time>
					</trkpt>
					<trkpt lat="46.654670" lon="5.412820">
						<ele>203</ele>
						<time>2021-02-03T11:36:25Z</time>
					</trkpt>
					<trkpt lat="46.654620" lon="5.412790">
						<ele>203</ele>
						<time>2021-02-03T11:36:26Z</time>
					</trkpt>
					<trkpt lat="46.654290" lon="5.412320">
						<ele>202</ele>
						<time>2021-02-03T11:36:34Z</time>
					</trkpt>
					<trkpt lat="46.654070" lon="5.411930">
						<ele>201</ele>
						<time>2021-02-03T11:36:41Z</time>
					</trkpt>
					<trkpt lat="46.653720" lon="5.411050">
						<ele>202</ele>
						<time>2021-02-03T11:36:53Z</time>
					</trkpt>
					<trkpt lat="46.653620" lon="5.410700">
						<ele>202</ele>
						<time>2021-02-03T11:36:58Z</time>
					</trkpt>
					<trkpt lat="46.653450" lon="5.409870">
						<ele>202</ele>
						<time>2021-02-03T11:37:08Z</time>
					</trkpt>
					<trkpt lat="46.653420" lon="5.409610">
						<ele>202</ele>
						<time>2021-02-03T11:37:11Z</time>
					</trkpt>
					<trkpt lat="46.653400" lon="5.406200">
						<ele>203</ele>
						<time>2021-02-03T11:37:53Z</time>
					</trkpt>
					<trkpt lat="46.653370" lon="5.405370">
						<ele>202</ele>
						<time>2021-02-03T11:38:03Z</time>
					</trkpt>
					<trkpt lat="46.653350" lon="5.405160">
						<ele>201</ele>
						<time>2021-02-03T11:38:06Z</time>
					</trkpt>
					<trkpt lat="46.653320" lon="5.405080">
						<ele>201</ele>
						<time>2021-02-03T11:38:07Z</time>
					</trkpt>
					<trkpt lat="46.653350" lon="5.405030">
						<ele>201</ele>
						<time>2021-02-03T11:38:08Z</time>
					</trkpt>
					<trkpt lat="46.653160" lon="5.403780">
						<ele>199</ele>
						<time>2021-02-03T11:38:23Z</time>
					</trkpt>
					<trkpt lat="46.653040" lon="5.403340">
						<ele>200</ele>
						<time>2021-02-03T11:38:29Z</time>
					</trkpt>
					<trkpt lat="46.652880" lon="5.402920">
						<ele>201</ele>
						<time>2021-02-03T11:38:35Z</time>
					</trkpt>
					<trkpt lat="46.652500" lon="5.402140">
						<ele>203</ele>
						<time>2021-02-03T11:38:47Z</time>
					</trkpt>
					<trkpt lat="46.652290" lon="5.401800">
						<ele>203</ele>
						<time>2021-02-03T11:38:52Z</time>
					</trkpt>
					<trkpt lat="46.652060" lon="5.401500">
						<ele>205</ele>
						<time>2021-02-03T11:38:58Z</time>
					</trkpt>
					<trkpt lat="46.650990" lon="5.400450">
						<ele>209</ele>
						<time>2021-02-03T11:39:21Z</time>
					</trkpt>
					<trkpt lat="46.650420" lon="5.399840">
						<ele>209</ele>
						<time>2021-02-03T11:39:33Z</time>
					</trkpt>
					<trkpt lat="46.649930" lon="5.399120">
						<ele>209</ele>
						<time>2021-02-03T11:39:46Z</time>
					</trkpt>
					<trkpt lat="46.649760" lon="5.398860">
						<ele>208</ele>
						<time>2021-02-03T11:39:50Z</time>
					</trkpt>
					<trkpt lat="46.649540" lon="5.398400">
						<ele>208</ele>
						<time>2021-02-03T11:39:57Z</time>
					</trkpt>
					<trkpt lat="46.649340" lon="5.397860">
						<ele>207</ele>
						<time>2021-02-03T11:40:04Z</time>
					</trkpt>
					<trkpt lat="46.649200" lon="5.397370">
						<ele>206</ele>
						<time>2021-02-03T11:40:11Z</time>
					</trkpt>
					<trkpt lat="46.649110" lon="5.396850">
						<ele>206</ele>
						<time>2021-02-03T11:40:17Z</time>
					</trkpt>
					<trkpt lat="46.649070" lon="5.396270">
						<ele>206</ele>
						<time>2021-02-03T11:40:25Z</time>
					</trkpt>
					<trkpt lat="46.649080" lon="5.395650">
						<ele>206</ele>
						<time>2021-02-03T11:40:32Z</time>
					</trkpt>
					<trkpt lat="46.649130" lon="5.394880">
						<ele>206</ele>
						<time>2021-02-03T11:40:42Z</time>
					</trkpt>
					<trkpt lat="46.649190" lon="5.394430">
						<ele>205</ele>
						<time>2021-02-03T11:40:47Z</time>
					</trkpt>
					<trkpt lat="46.649400" lon="5.393560">
						<ele>203</ele>
						<time>2021-02-03T11:40:58Z</time>
					</trkpt>
					<trkpt lat="46.649720" lon="5.392720">
						<ele>202</ele>
						<time>2021-02-03T11:41:10Z</time>
					</trkpt>
					<trkpt lat="46.649990" lon="5.392250">
						<ele>202</ele>
						<time>2021-02-03T11:41:18Z</time>
					</trkpt>
					<trkpt lat="46.650620" lon="5.391300">
						<ele>205</ele>
						<time>2021-02-03T11:41:34Z</time>
					</trkpt>
					<trkpt lat="46.650890" lon="5.390800">
						<ele>206</ele>
						<time>2021-02-03T11:41:42Z</time>
					</trkpt>
					<trkpt lat="46.651070" lon="5.390400">
						<ele>206</ele>
						<time>2021-02-03T11:41:47Z</time>
					</trkpt>
					<trkpt lat="46.651330" lon="5.389680">
						<ele>206</ele>
						<time>2021-02-03T11:41:57Z</time>
					</trkpt>
					<trkpt lat="46.652260" lon="5.386800">
						<ele>203</ele>
						<time>2021-02-03T11:42:36Z</time>
					</trkpt>
					<trkpt lat="46.652540" lon="5.385800">
						<ele>203</ele>
						<time>2021-02-03T11:42:49Z</time>
					</trkpt>
					<trkpt lat="46.652720" lon="5.384350">
						<ele>199</ele>
						<time>2021-02-03T11:43:07Z</time>
					</trkpt>
					<trkpt lat="46.652740" lon="5.383900">
						<ele>198</ele>
						<time>2021-02-03T11:43:13Z</time>
					</trkpt>
					<trkpt lat="46.652730" lon="5.382890">
						<ele>196</ele>
						<time>2021-02-03T11:43:25Z</time>
					</trkpt>
					<trkpt lat="46.652650" lon="5.382050">
						<ele>197</ele>
						<time>2021-02-03T11:43:36Z</time>
					</trkpt>
					<trkpt lat="46.652570" lon="5.381570">
						<ele>198</ele>
						<time>2021-02-03T11:43:42Z</time>
					</trkpt>
					<trkpt lat="46.652370" lon="5.380670">
						<ele>201</ele>
						<time>2021-02-03T11:43:53Z</time>
					</trkpt>
					<trkpt lat="46.651720" lon="5.378660">
						<ele>197</ele>
						<time>2021-02-03T11:44:20Z</time>
					</trkpt>
					<trkpt lat="46.651660" lon="5.378420">
						<ele>196</ele>
						<time>2021-02-03T11:44:23Z</time>
					</trkpt>
					<trkpt lat="46.651520" lon="5.377570">
						<ele>196</ele>
						<time>2021-02-03T11:44:34Z</time>
					</trkpt>
					<trkpt lat="46.651490" lon="5.376830">
						<ele>195</ele>
						<time>2021-02-03T11:44:43Z</time>
					</trkpt>
					<trkpt lat="46.651510" lon="5.373980">
						<ele>193</ele>
						<time>2021-02-03T11:45:18Z</time>
					</trkpt>
					<trkpt lat="46.651440" lon="5.372960">
						<ele>193</ele>
						<time>2021-02-03T11:45:30Z</time>
					</trkpt>
					<trkpt lat="46.651370" lon="5.372550">
						<ele>194</ele>
						<time>2021-02-03T11:45:36Z</time>
					</trkpt>
					<trkpt lat="46.651130" lon="5.371520">
						<ele>194</ele>
						<time>2021-02-03T11:45:49Z</time>
					</trkpt>
					<trkpt lat="46.649050" lon="5.363330">
						<ele>200</ele>
						<time>2021-02-03T11:47:36Z</time>
					</trkpt>
					<trkpt lat="46.648630" lon="5.361980">
						<ele>197</ele>
						<time>2021-02-03T11:47:54Z</time>
					</trkpt>
					<trkpt lat="46.647030" lon="5.357940">
						<ele>194</ele>
						<time>2021-02-03T11:48:51Z</time>
					</trkpt>
					<trkpt lat="46.646850" lon="5.357420">
						<ele>192</ele>
						<time>2021-02-03T11:48:58Z</time>
					</trkpt>
					<trkpt lat="46.646760" lon="5.357070">
						<ele>191</ele>
						<time>2021-02-03T11:49:02Z</time>
					</trkpt>
					<trkpt lat="46.646650" lon="5.356560">
						<ele>191</ele>
						<time>2021-02-03T11:49:09Z</time>
					</trkpt>
					<trkpt lat="46.646530" lon="5.355710">
						<ele>192</ele>
						<time>2021-02-03T11:49:19Z</time>
					</trkpt>
					<trkpt lat="46.646450" lon="5.353210">
						<ele>192</ele>
						<time>2021-02-03T11:49:50Z</time>
					</trkpt>
					<trkpt lat="46.646410" lon="5.352550">
						<ele>191</ele>
						<time>2021-02-03T11:49:58Z</time>
					</trkpt>
					<trkpt lat="46.646350" lon="5.352060">
						<ele>192</ele>
						<time>2021-02-03T11:50:04Z</time>
					</trkpt>
					<trkpt lat="46.646190" lon="5.351300">
						<ele>191</ele>
						<time>2021-02-03T11:50:14Z</time>
					</trkpt>
					<trkpt lat="46.645540" lon="5.348600">
						<ele>191</ele>
						<time>2021-02-03T11:50:49Z</time>
					</trkpt>
					<trkpt lat="46.645470" lon="5.348350">
						<ele>192</ele>
						<time>2021-02-03T11:50:52Z</time>
					</trkpt>
					<trkpt lat="46.645220" lon="5.347680">
						<ele>193</ele>
						<time>2021-02-03T11:51:01Z</time>
					</trkpt>
					<trkpt lat="46.644020" lon="5.345150">
						<ele>195</ele>
						<time>2021-02-03T11:51:39Z</time>
					</trkpt>
					<trkpt lat="46.643830" lon="5.344700">
						<ele>195</ele>
						<time>2021-02-03T11:51:45Z</time>
					</trkpt>
					<trkpt lat="46.643470" lon="5.343720">
						<ele>195</ele>
						<time>2021-02-03T11:51:59Z</time>
					</trkpt>
					<trkpt lat="46.643370" lon="5.343420">
						<ele>194</ele>
						<time>2021-02-03T11:52:03Z</time>
					</trkpt>
					<trkpt lat="46.642770" lon="5.340880">
						<ele>191</ele>
						<time>2021-02-03T11:52:36Z</time>
					</trkpt>
					<trkpt lat="46.642660" lon="5.340260">
						<ele>189</ele>
						<time>2021-02-03T11:52:44Z</time>
					</trkpt>
					<trkpt lat="46.642570" lon="5.339570">
						<ele>189</ele>
						<time>2021-02-03T11:52:52Z</time>
					</trkpt>
					<trkpt lat="46.642510" lon="5.338660">
						<ele>188</ele>
						<time>2021-02-03T11:53:04Z</time>
					</trkpt>
					<trkpt lat="46.642520" lon="5.337630">
						<ele>189</ele>
						<time>2021-02-03T11:53:16Z</time>
					</trkpt>
					<trkpt lat="46.642560" lon="5.337080">
						<ele>188</ele>
						<time>2021-02-03T11:53:23Z</time>
					</trkpt>
					<trkpt lat="46.642700" lon="5.336060">
						<ele>188</ele>
						<time>2021-02-03T11:53:36Z</time>
					</trkpt>
					<trkpt lat="46.642970" lon="5.334430">
						<ele>190</ele>
						<time>2021-02-03T11:53:56Z</time>
					</trkpt>
					<trkpt lat="46.643020" lon="5.333970">
						<ele>190</ele>
						<time>2021-02-03T11:54:02Z</time>
					</trkpt>
					<trkpt lat="46.643060" lon="5.333400">
						<ele>189</ele>
						<time>2021-02-03T11:54:09Z</time>
					</trkpt>
					<trkpt lat="46.643060" lon="5.332490">
						<ele>189</ele>
						<time>2021-02-03T11:54:20Z</time>
					</trkpt>
					<trkpt lat="46.642950" lon="5.331490">
						<ele>188</ele>
						<time>2021-02-03T11:54:32Z</time>
					</trkpt>
					<trkpt lat="46.642480" lon="5.329450">
						<ele>187</ele>
						<time>2021-02-03T11:54:59Z</time>
					</trkpt>
					<trkpt lat="46.642280" lon="5.328270">
						<ele>188</ele>
						<time>2021-02-03T11:55:13Z</time>
					</trkpt>
					<trkpt lat="46.642190" lon="5.327470">
						<ele>187</ele>
						<time>2021-02-03T11:55:23Z</time>
					</trkpt>
					<trkpt lat="46.641890" lon="5.323400">
						<ele>189</ele>
						<time>2021-02-03T11:56:13Z</time>
					</trkpt>
					<trkpt lat="46.641800" lon="5.322680">
						<ele>188</ele>
						<time>2021-02-03T11:56:22Z</time>
					</trkpt>
					<trkpt lat="46.641680" lon="5.322110">
						<ele>188</ele>
						<time>2021-02-03T11:56:29Z</time>
					</trkpt>
					<trkpt lat="46.641510" lon="5.321550">
						<ele>190</ele>
						<time>2021-02-03T11:56:37Z</time>
					</trkpt>
					<trkpt lat="46.641220" lon="5.320900">
						<ele>190</ele>
						<time>2021-02-03T11:56:46Z</time>
					</trkpt>
					<trkpt lat="46.640860" lon="5.320270">
						<ele>189</ele>
						<time>2021-02-03T11:56:56Z</time>
					</trkpt>
					<trkpt lat="46.640520" lon="5.319850">
						<ele>188</ele>
						<time>2021-02-03T11:57:04Z</time>
					</trkpt>
					<trkpt lat="46.640120" lon="5.319440">
						<ele>187</ele>
						<time>2021-02-03T11:57:13Z</time>
					</trkpt>
					<trkpt lat="46.639570" lon="5.318950">
						<ele>187</ele>
						<time>2021-02-03T11:57:25Z</time>
					</trkpt>
					<trkpt lat="46.639230" lon="5.318600">
						<ele>188</ele>
						<time>2021-02-03T11:57:32Z</time>
					</trkpt>
					<trkpt lat="46.638890" lon="5.318150">
						<ele>188</ele>
						<time>2021-02-03T11:57:40Z</time>
					</trkpt>
					<trkpt lat="46.638630" lon="5.317730">
						<ele>188</ele>
						<time>2021-02-03T11:57:47Z</time>
					</trkpt>
					<trkpt lat="46.638400" lon="5.317280">
						<ele>189</ele>
						<time>2021-02-03T11:57:54Z</time>
					</trkpt>
					<trkpt lat="46.637130" lon="5.314240">
						<ele>188</ele>
						<time>2021-02-03T11:58:37Z</time>
					</trkpt>
					<trkpt lat="46.636870" lon="5.313480">
						<ele>188</ele>
						<time>2021-02-03T11:58:48Z</time>
					</trkpt>
					<trkpt lat="46.636740" lon="5.313030">
						<ele>187</ele>
						<time>2021-02-03T11:58:54Z</time>
					</trkpt>
					<trkpt lat="46.636610" lon="5.312440">
						<ele>186</ele>
						<time>2021-02-03T11:59:01Z</time>
					</trkpt>
					<trkpt lat="46.636180" lon="5.309270">
						<ele>187</ele>
						<time>2021-02-03T11:59:41Z</time>
					</trkpt>
					<trkpt lat="46.635900" lon="5.306960">
						<ele>188</ele>
						<time>2021-02-03T12:00:09Z</time>
					</trkpt>
					<trkpt lat="46.635890" lon="5.306360">
						<ele>187</ele>
						<time>2021-02-03T12:00:17Z</time>
					</trkpt>
					<trkpt lat="46.635970" lon="5.305150">
						<ele>187</ele>
						<time>2021-02-03T12:00:32Z</time>
					</trkpt>
					<trkpt lat="46.636210" lon="5.303920">
						<ele>188</ele>
						<time>2021-02-03T12:00:47Z</time>
					</trkpt>
					<trkpt lat="46.636460" lon="5.303230">
						<ele>188</ele>
						<time>2021-02-03T12:00:57Z</time>
					</trkpt>
					<trkpt lat="46.636730" lon="5.302620">
						<ele>189</ele>
						<time>2021-02-03T12:01:06Z</time>
					</trkpt>
					<trkpt lat="46.637090" lon="5.301920">
						<ele>189</ele>
						<time>2021-02-03T12:01:16Z</time>
					</trkpt>
					<trkpt lat="46.637330" lon="5.301550">
						<ele>189</ele>
						<time>2021-02-03T12:01:23Z</time>
					</trkpt>
					<trkpt lat="46.637490" lon="5.301240">
						<ele>189</ele>
						<time>2021-02-03T12:01:27Z</time>
					</trkpt>
					<trkpt lat="46.637650" lon="5.300900">
						<ele>188</ele>
						<time>2021-02-03T12:01:32Z</time>
					</trkpt>
					<trkpt lat="46.637810" lon="5.300430">
						<ele>189</ele>
						<time>2021-02-03T12:01:39Z</time>
					</trkpt>
					<trkpt lat="46.638040" lon="5.299300">
						<ele>191</ele>
						<time>2021-02-03T12:01:53Z</time>
					</trkpt>
					<trkpt lat="46.638080" lon="5.298840">
						<ele>190</ele>
						<time>2021-02-03T12:01:59Z</time>
					</trkpt>
					<trkpt lat="46.638090" lon="5.298360">
						<ele>189</ele>
						<time>2021-02-03T12:02:05Z</time>
					</trkpt>
					<trkpt lat="46.638050" lon="5.297560">
						<ele>186</ele>
						<time>2021-02-03T12:02:14Z</time>
					</trkpt>
					<trkpt lat="46.637830" lon="5.296040">
						<ele>184</ele>
						<time>2021-02-03T12:02:33Z</time>
					</trkpt>
					<trkpt lat="46.637680" lon="5.295350">
						<ele>185</ele>
						<time>2021-02-03T12:02:42Z</time>
					</trkpt>
					<trkpt lat="46.637210" lon="5.293690">
						<ele>186</ele>
						<time>2021-02-03T12:03:04Z</time>
					</trkpt>
					<trkpt lat="46.637050" lon="5.292880">
						<ele>185</ele>
						<time>2021-02-03T12:03:14Z</time>
					</trkpt>
					<trkpt lat="46.636990" lon="5.292200">
						<ele>185</ele>
						<time>2021-02-03T12:03:23Z</time>
					</trkpt>
					<trkpt lat="46.636980" lon="5.291040">
						<ele>186</ele>
						<time>2021-02-03T12:03:37Z</time>
					</trkpt>
					<trkpt lat="46.637200" lon="5.288870">
						<ele>193</ele>
						<time>2021-02-03T12:04:04Z</time>
					</trkpt>
					<trkpt lat="46.637240" lon="5.288130">
						<ele>192</ele>
						<time>2021-02-03T12:04:13Z</time>
					</trkpt>
					<trkpt lat="46.637150" lon="5.287350">
						<ele>190</ele>
						<time>2021-02-03T12:04:23Z</time>
					</trkpt>
					<trkpt lat="46.636980" lon="5.286520">
						<ele>185</ele>
						<time>2021-02-03T12:04:33Z</time>
					</trkpt>
					<trkpt lat="46.636790" lon="5.285900">
						<ele>185</ele>
						<time>2021-02-03T12:04:41Z</time>
					</trkpt>
					<trkpt lat="46.636470" lon="5.285200">
						<ele>185</ele>
						<time>2021-02-03T12:04:52Z</time>
					</trkpt>
					<trkpt lat="46.636240" lon="5.284810">
						<ele>185</ele>
						<time>2021-02-03T12:04:58Z</time>
					</trkpt>
					<trkpt lat="46.635810" lon="5.284270">
						<ele>184</ele>
						<time>2021-02-03T12:05:08Z</time>
					</trkpt>
					<trkpt lat="46.635650" lon="5.284080">
						<ele>185</ele>
						<time>2021-02-03T12:05:12Z</time>
					</trkpt>
					<trkpt lat="46.634350" lon="5.282760">
						<ele>186</ele>
						<time>2021-02-03T12:05:40Z</time>
					</trkpt>
					<trkpt lat="46.632650" lon="5.281150">
						<ele>190</ele>
						<time>2021-02-03T12:06:16Z</time>
					</trkpt>
					<trkpt lat="46.632330" lon="5.280900">
						<ele>191</ele>
						<time>2021-02-03T12:06:23Z</time>
					</trkpt>
					<trkpt lat="46.631580" lon="5.279880">
						<ele>193</ele>
						<time>2021-02-03T12:06:41Z</time>
					</trkpt>
					<trkpt lat="46.631170" lon="5.279040">
						<ele>193</ele>
						<time>2021-02-03T12:06:53Z</time>
					</trkpt>
					<trkpt lat="46.630800" lon="5.278130">
						<ele>193</ele>
						<time>2021-02-03T12:07:06Z</time>
					</trkpt>
					<trkpt lat="46.630000" lon="5.275490">
						<ele>193</ele>
						<time>2021-02-03T12:07:42Z</time>
					</trkpt>
					<trkpt lat="46.629780" lon="5.275020">
						<ele>191</ele>
						<time>2021-02-03T12:07:48Z</time>
					</trkpt>
					<trkpt lat="46.629320" lon="5.274180">
						<ele>188</ele>
						<time>2021-02-03T12:08:02Z</time>
					</trkpt>
					<trkpt lat="46.628300" lon="5.272880">
						<ele>188</ele>
						<time>2021-02-03T12:08:26Z</time>
					</trkpt>
					<trkpt lat="46.627950" lon="5.272330">
						<ele>186</ele>
						<time>2021-02-03T12:08:35Z</time>
					</trkpt>
					<trkpt lat="46.627310" lon="5.271120">
						<ele>184</ele>
						<time>2021-02-03T12:08:54Z</time>
					</trkpt>
					<trkpt lat="46.626550" lon="5.269470">
						<ele>187</ele>
						<time>2021-02-03T12:09:18Z</time>
					</trkpt>
					<trkpt lat="46.626280" lon="5.268740">
						<ele>190</ele>
						<time>2021-02-03T12:09:28Z</time>
					</trkpt>
					<trkpt lat="46.625830" lon="5.267690">
						<ele>189</ele>
						<time>2021-02-03T12:09:43Z</time>
					</trkpt>
					<trkpt lat="46.625620" lon="5.265740">
						<ele>184</ele>
						<time>2021-02-03T12:10:07Z</time>
					</trkpt>
					<trkpt lat="46.625730" lon="5.264700">
						<ele>184</ele>
						<time>2021-02-03T12:10:20Z</time>
					</trkpt>
					<trkpt lat="46.625870" lon="5.264180">
						<ele>184</ele>
						<time>2021-02-03T12:10:27Z</time>
					</trkpt>
					<trkpt lat="46.625930" lon="5.263850">
						<ele>184</ele>
						<time>2021-02-03T12:10:31Z</time>
					</trkpt>
					<trkpt lat="46.626190" lon="5.263180">
						<ele>185</ele>
						<time>2021-02-03T12:10:40Z</time>
					</trkpt>
					<trkpt lat="46.626850" lon="5.262050">
						<ele>186</ele>
						<time>2021-02-03T12:10:59Z</time>
					</trkpt>
					<trkpt lat="46.627260" lon="5.261450">
						<ele>185</ele>
						<time>2021-02-03T12:11:09Z</time>
					</trkpt>
					<trkpt lat="46.627650" lon="5.260730">
						<ele>187</ele>
						<time>2021-02-03T12:11:20Z</time>
					</trkpt>
					<trkpt lat="46.627900" lon="5.260010">
						<ele>190</ele>
						<time>2021-02-03T12:11:30Z</time>
					</trkpt>
					<trkpt lat="46.627980" lon="5.259550">
						<ele>191</ele>
						<time>2021-02-03T12:11:36Z</time>
					</trkpt>
					<trkpt lat="46.628300" lon="5.256930">
						<ele>191</ele>
						<time>2021-02-03T12:12:08Z</time>
					</trkpt>
					<trkpt lat="46.628520" lon="5.256170">
						<ele>192</ele>
						<time>2021-02-03T12:12:18Z</time>
					</trkpt>
					<trkpt lat="46.628800" lon="5.255470">
						<ele>191</ele>
						<time>2021-02-03T12:12:28Z</time>
					</trkpt>
					<trkpt lat="46.629190" lon="5.254360">
						<ele>190</ele>
						<time>2021-02-03T12:12:44Z</time>
					</trkpt>
					<trkpt lat="46.629390" lon="5.253590">
						<ele>193</ele>
						<time>2021-02-03T12:12:54Z</time>
					</trkpt>
					<trkpt lat="46.629590" lon="5.250440">
						<ele>191</ele>
						<time>2021-02-03T12:13:32Z</time>
					</trkpt>
					<trkpt lat="46.629640" lon="5.247880">
						<ele>198</ele>
						<time>2021-02-03T12:14:04Z</time>
					</trkpt>
					<trkpt lat="46.629620" lon="5.247690">
						<ele>199</ele>
						<time>2021-02-03T12:14:06Z</time>
					</trkpt>
					<trkpt lat="46.629570" lon="5.247650">
						<ele>199</ele>
						<time>2021-02-03T12:14:07Z</time>
					</trkpt>
					<trkpt lat="46.629540" lon="5.247440">
						<ele>200</ele>
						<time>2021-02-03T12:14:10Z</time>
					</trkpt>
					<trkpt lat="46.629610" lon="5.247280">
						<ele>199</ele>
						<time>2021-02-03T12:14:12Z</time>
					</trkpt>
					<trkpt lat="46.629730" lon="5.245760">
						<ele>194</ele>
						<time>2021-02-03T12:14:31Z</time>
					</trkpt>
					<trkpt lat="46.629690" lon="5.245280">
						<ele>193</ele>
						<time>2021-02-03T12:14:36Z</time>
					</trkpt>
					<trkpt lat="46.629610" lon="5.244770">
						<ele>193</ele>
						<time>2021-02-03T12:14:43Z</time>
					</trkpt>
					<trkpt lat="46.629400" lon="5.243900">
						<ele>194</ele>
						<time>2021-02-03T12:14:54Z</time>
					</trkpt>
					<trkpt lat="46.628610" lon="5.242300">
						<ele>193</ele>
						<time>2021-02-03T12:15:18Z</time>
					</trkpt>
					<trkpt lat="46.628070" lon="5.241300">
						<ele>191</ele>
						<time>2021-02-03T12:15:34Z</time>
					</trkpt>
					<trkpt lat="46.627620" lon="5.240310">
						<ele>190</ele>
						<time>2021-02-03T12:15:48Z</time>
					</trkpt>
					<trkpt lat="46.627560" lon="5.240240">
						<ele>190</ele>
						<time>2021-02-03T12:15:50Z</time>
					</trkpt>
					<trkpt lat="46.627410" lon="5.239940">
						<ele>190</ele>
						<time>2021-02-03T12:15:54Z</time>
					</trkpt>
					<trkpt lat="46.627150" lon="5.239180">
						<ele>189</ele>
						<time>2021-02-03T12:16:05Z</time>
					</trkpt>
					<trkpt lat="46.626940" lon="5.238360">
						<ele>187</ele>
						<time>2021-02-03T12:16:15Z</time>
					</trkpt>
					<trkpt lat="46.626870" lon="5.237780">
						<ele>188</ele>
						<time>2021-02-03T12:16:22Z</time>
					</trkpt>
					<trkpt lat="46.626860" lon="5.237120">
						<ele>189</ele>
						<time>2021-02-03T12:16:30Z</time>
					</trkpt>
					<trkpt lat="46.626890" lon="5.236310">
						<ele>188</ele>
						<time>2021-02-03T12:16:40Z</time>
					</trkpt>
					<trkpt lat="46.627030" lon="5.235530">
						<ele>187</ele>
						<time>2021-02-03T12:16:50Z</time>
					</trkpt>
					<trkpt lat="46.627280" lon="5.234660">
						<ele>185</ele>
						<time>2021-02-03T12:17:02Z</time>
					</trkpt>
					<trkpt lat="46.627540" lon="5.234060">
						<ele>184</ele>
						<time>2021-02-03T12:17:10Z</time>
					</trkpt>
					<trkpt lat="46.628990" lon="5.231480">
						<ele>183</ele>
						<time>2021-02-03T12:17:51Z</time>
					</trkpt>
					<trkpt lat="46.629510" lon="5.230600">
						<ele>184</ele>
						<time>2021-02-03T12:18:05Z</time>
					</trkpt>
					<trkpt lat="46.629930" lon="5.230130">
						<ele>184</ele>
						<time>2021-02-03T12:18:15Z</time>
					</trkpt>
					<trkpt lat="46.630620" lon="5.229480">
						<ele>184</ele>
						<time>2021-02-03T12:18:29Z</time>
					</trkpt>
					<trkpt lat="46.630660" lon="5.229510">
						<ele>184</ele>
						<time>2021-02-03T12:18:30Z</time>
					</trkpt>
					<trkpt lat="46.631020" lon="5.229140">
						<ele>183</ele>
						<time>2021-02-03T12:18:38Z</time>
					</trkpt>
					<trkpt lat="46.631420" lon="5.228680">
						<ele>182</ele>
						<time>2021-02-03T12:18:47Z</time>
					</trkpt>
					<trkpt lat="46.631850" lon="5.228130">
						<ele>181</ele>
						<time>2021-02-03T12:18:57Z</time>
					</trkpt>
					<trkpt lat="46.632150" lon="5.227650">
						<ele>181</ele>
						<time>2021-02-03T12:19:05Z</time>
					</trkpt>
					<trkpt lat="46.632430" lon="5.227070">
						<ele>180</ele>
						<time>2021-02-03T12:19:14Z</time>
					</trkpt>
					<trkpt lat="46.632580" lon="5.226660">
						<ele>179</ele>
						<time>2021-02-03T12:19:20Z</time>
					</trkpt>
					<trkpt lat="46.632740" lon="5.226050">
						<ele>180</ele>
						<time>2021-02-03T12:19:28Z</time>
					</trkpt>
					<trkpt lat="46.632940" lon="5.224950">
						<ele>179</ele>
						<time>2021-02-03T12:19:41Z</time>
					</trkpt>
					<trkpt lat="46.632920" lon="5.224280">
						<ele>177</ele>
						<time>2021-02-03T12:19:50Z</time>
					</trkpt>
					<trkpt lat="46.632860" lon="5.223490">
						<ele>177</ele>
						<time>2021-02-03T12:19:59Z</time>
					</trkpt>
					<trkpt lat="46.632540" lon="5.221220">
						<ele>178</ele>
						<time>2021-02-03T12:20:28Z</time>
					</trkpt>
					<trkpt lat="46.632470" lon="5.220470">
						<ele>179</ele>
						<time>2021-02-03T12:20:37Z</time>
					</trkpt>
					<trkpt lat="46.632440" lon="5.219470">
						<ele>179</ele>
						<time>2021-02-03T12:20:49Z</time>
					</trkpt>
					<trkpt lat="46.632560" lon="5.218310">
						<ele>180</ele>
						<time>2021-02-03T12:21:03Z</time>
					</trkpt>
					<trkpt lat="46.632510" lon="5.218140">
						<ele>180</ele>
						<time>2021-02-03T12:21:06Z</time>
					</trkpt>
					<trkpt lat="46.632500" lon="5.216380">
						<ele>183</ele>
						<time>2021-02-03T12:21:27Z</time>
					</trkpt>
					<trkpt lat="46.632940" lon="5.215100">
						<ele>181</ele>
						<time>2021-02-03T12:21:45Z</time>
					</trkpt>
					<trkpt lat="46.633090" lon="5.214850">
						<ele>180</ele>
						<time>2021-02-03T12:21:49Z</time>
					</trkpt>
					<trkpt lat="46.633670" lon="5.214220">
						<ele>179</ele>
						<time>2021-02-03T12:22:02Z</time>
					</trkpt>
					<trkpt lat="46.633750" lon="5.213860">
						<ele>179</ele>
						<time>2021-02-03T12:22:06Z</time>
					</trkpt>
					<trkpt lat="46.633800" lon="5.213760">
						<ele>179</ele>
						<time>2021-02-03T12:22:08Z</time>
					</trkpt>
					<trkpt lat="46.633990" lon="5.213560">
						<ele>178</ele>
						<time>2021-02-03T12:22:12Z</time>
					</trkpt>
					<trkpt lat="46.634530" lon="5.213250">
						<ele>178</ele>
						<time>2021-02-03T12:22:22Z</time>
					</trkpt>
					<trkpt lat="46.634730" lon="5.213100">
						<ele>178</ele>
						<time>2021-02-03T12:22:26Z</time>
					</trkpt>
					<trkpt lat="46.635090" lon="5.212670">
						<ele>178</ele>
						<time>2021-02-03T12:22:35Z</time>
					</trkpt>
					<trkpt lat="46.635340" lon="5.212270">
						<ele>178</ele>
						<time>2021-02-03T12:22:41Z</time>
					</trkpt>
					<trkpt lat="46.635400" lon="5.212250">
						<ele>178</ele>
						<time>2021-02-03T12:22:42Z</time>
					</trkpt>
					<trkpt lat="46.635680" lon="5.212470">
						<ele>179</ele>
						<time>2021-02-03T12:22:48Z</time>
					</trkpt>
					<trkpt lat="46.636010" lon="5.212050">
						<ele>180</ele>
						<time>2021-02-03T12:22:56Z</time>
					</trkpt>
					<trkpt lat="46.636570" lon="5.210900">
						<ele>181</ele>
						<time>2021-02-03T12:23:13Z</time>
					</trkpt>
					<trkpt lat="46.636730" lon="5.210520">
						<ele>181</ele>
						<time>2021-02-03T12:23:18Z</time>
					</trkpt>
					<trkpt lat="46.637650" lon="5.207950">
						<ele>179</ele>
						<time>2021-02-03T12:23:54Z</time>
					</trkpt>
					<trkpt lat="46.638300" lon="5.206230">
						<ele>178</ele>
						<time>2021-02-03T12:24:18Z</time>
					</trkpt>
					<trkpt lat="46.638540" lon="5.205770">
						<ele>179</ele>
						<time>2021-02-03T12:24:25Z</time>
					</trkpt>
					<trkpt lat="46.638940" lon="5.205120">
						<ele>179</ele>
						<time>2021-02-03T12:24:36Z</time>
					</trkpt>
					<trkpt lat="46.640510" lon="5.202640">
						<ele>180</ele>
						<time>2021-02-03T12:25:17Z</time>
					</trkpt>
					<trkpt lat="46.640900" lon="5.201780">
						<ele>179</ele>
						<time>2021-02-03T12:25:29Z</time>
					</trkpt>
					<trkpt lat="46.641130" lon="5.201130">
						<ele>179</ele>
						<time>2021-02-03T12:25:38Z</time>
					</trkpt>
					<trkpt lat="46.641430" lon="5.200020">
						<ele>180</ele>
						<time>2021-02-03T12:25:53Z</time>
					</trkpt>
					<trkpt lat="46.641840" lon="5.198360">
						<ele>179</ele>
						<time>2021-02-03T12:26:14Z</time>
					</trkpt>
					<trkpt lat="46.642720" lon="5.194220">
						<ele>180</ele>
						<time>2021-02-03T12:27:07Z</time>
					</trkpt>
					<trkpt lat="46.642870" lon="5.193320">
						<ele>181</ele>
						<time>2021-02-03T12:27:19Z</time>
					</trkpt>
					<trkpt lat="46.643330" lon="5.189420">
						<ele>181</ele>
						<time>2021-02-03T12:28:07Z</time>
					</trkpt>
					<trkpt lat="46.643650" lon="5.186330">
						<ele>185</ele>
						<time>2021-02-03T12:28:45Z</time>
					</trkpt>
					<trkpt lat="46.643700" lon="5.185720">
						<ele>185</ele>
						<time>2021-02-03T12:28:53Z</time>
					</trkpt>
					<trkpt lat="46.643760" lon="5.184230">
						<ele>187</ele>
						<time>2021-02-03T12:29:11Z</time>
					</trkpt>
					<trkpt lat="46.643820" lon="5.182340">
						<ele>186</ele>
						<time>2021-02-03T12:29:34Z</time>
					</trkpt>
					<trkpt lat="46.643870" lon="5.179670">
						<ele>187</ele>
						<time>2021-02-03T12:30:07Z</time>
					</trkpt>
					<trkpt lat="46.643850" lon="5.179590">
						<ele>187</ele>
						<time>2021-02-03T12:30:08Z</time>
					</trkpt>
					<trkpt lat="46.643880" lon="5.179450">
						<ele>187</ele>
						<time>2021-02-03T12:30:09Z</time>
					</trkpt>
					<trkpt lat="46.643890" lon="5.178800">
						<ele>187</ele>
						<time>2021-02-03T12:30:17Z</time>
					</trkpt>
					<trkpt lat="46.643870" lon="5.175030">
						<ele>188</ele>
						<time>2021-02-03T12:31:03Z</time>
					</trkpt>
					<trkpt lat="46.643970" lon="5.174050">
						<ele>186</ele>
						<time>2021-02-03T12:31:16Z</time>
					</trkpt>
					<trkpt lat="46.644050" lon="5.173570">
						<ele>184</ele>
						<time>2021-02-03T12:31:22Z</time>
					</trkpt>
					<trkpt lat="46.644200" lon="5.172930">
						<ele>183</ele>
						<time>2021-02-03T12:31:30Z</time>
					</trkpt>
					<trkpt lat="46.644520" lon="5.171850">
						<ele>181</ele>
						<time>2021-02-03T12:31:44Z</time>
					</trkpt>
					<trkpt lat="46.644800" lon="5.171060">
						<ele>180</ele>
						<time>2021-02-03T12:31:55Z</time>
					</trkpt>
					<trkpt lat="46.645440" lon="5.170100">
						<ele>178</ele>
						<time>2021-02-03T12:32:11Z</time>
					</trkpt>
					<trkpt lat="46.645960" lon="5.169490">
						<ele>178</ele>
						<time>2021-02-03T12:32:23Z</time>
					</trkpt>
					<trkpt lat="46.646720" lon="5.168810">
						<ele>182</ele>
						<time>2021-02-03T12:32:39Z</time>
					</trkpt>
					<trkpt lat="46.647490" lon="5.167890">
						<ele>183</ele>
						<time>2021-02-03T12:32:57Z</time>
					</trkpt>
					<trkpt lat="46.647770" lon="5.167380">
						<ele>182</ele>
						<time>2021-02-03T12:33:05Z</time>
					</trkpt>
					<trkpt lat="46.647870" lon="5.166970">
						<ele>181</ele>
						<time>2021-02-03T12:33:10Z</time>
					</trkpt>
					<trkpt lat="46.647980" lon="5.166970">
						<ele>181</ele>
						<time>2021-02-03T12:33:12Z</time>
					</trkpt>
					<trkpt lat="46.647980" lon="5.166900">
						<ele>181</ele>
						<time>2021-02-03T12:33:13Z</time>
					</trkpt>
					<trkpt lat="46.648450" lon="5.165790">
						<ele>181</ele>
						<time>2021-02-03T12:33:29Z</time>
					</trkpt>
					<trkpt lat="46.650740" lon="5.159310">
						<ele>180</ele>
						<time>2021-02-03T12:34:58Z</time>
					</trkpt>
					<trkpt lat="46.651000" lon="5.158690">
						<ele>180</ele>
						<time>2021-02-03T12:35:07Z</time>
					</trkpt>
					<trkpt lat="46.651640" lon="5.157670">
						<ele>181</ele>
						<time>2021-02-03T12:35:24Z</time>
					</trkpt>
					<trkpt lat="46.652040" lon="5.157210">
						<ele>182</ele>
						<time>2021-02-03T12:35:33Z</time>
					</trkpt>
					<trkpt lat="46.652350" lon="5.156940">
						<ele>182</ele>
						<time>2021-02-03T12:35:39Z</time>
					</trkpt>
					<trkpt lat="46.653860" lon="5.155930">
						<ele>186</ele>
						<time>2021-02-03T12:36:09Z</time>
					</trkpt>
					<trkpt lat="46.656390" lon="5.154340">
						<ele>188</ele>
						<time>2021-02-03T12:36:58Z</time>
					</trkpt>
					<trkpt lat="46.659120" lon="5.153040">
						<ele>188</ele>
						<time>2021-02-03T12:37:49Z</time>
					</trkpt>
					<trkpt lat="46.660130" lon="5.152900">
						<ele>191</ele>
						<time>2021-02-03T12:38:07Z</time>
					</trkpt>
					<trkpt lat="46.660940" lon="5.152730">
						<ele>191</ele>
						<time>2021-02-03T12:38:21Z</time>
					</trkpt>
					<trkpt lat="46.661440" lon="5.152520">
						<ele>190</ele>
						<time>2021-02-03T12:38:31Z</time>
					</trkpt>
					<trkpt lat="46.662330" lon="5.152030">
						<ele>189</ele>
						<time>2021-02-03T12:38:48Z</time>
					</trkpt>
					<trkpt lat="46.662770" lon="5.151630">
						<ele>190</ele>
						<time>2021-02-03T12:38:57Z</time>
					</trkpt>
					<trkpt lat="46.663770" lon="5.150300">
						<ele>198</ele>
						<time>2021-02-03T12:39:21Z</time>
					</trkpt>
					<trkpt lat="46.667280" lon="5.144880">
						<ele>204</ele>
						<time>2021-02-03T12:40:52Z</time>
					</trkpt>
					<trkpt lat="46.668240" lon="5.143110">
						<ele>202</ele>
						<time>2021-02-03T12:41:20Z</time>
					</trkpt>
					<trkpt lat="46.668850" lon="5.142390">
						<ele>202</ele>
						<time>2021-02-03T12:41:33Z</time>
					</trkpt>
					<trkpt lat="46.670350" lon="5.141110">
						<ele>204</ele>
						<time>2021-02-03T12:42:04Z</time>
					</trkpt>
					<trkpt lat="46.670440" lon="5.141400">
						<ele>205</ele>
						<time>2021-02-03T12:42:08Z</time>
					</trkpt>
					<trkpt lat="46.670390" lon="5.141970">
						<ele>206</ele>
						<time>2021-02-03T12:42:15Z</time>
					</trkpt>
					<trkpt lat="46.670560" lon="5.141830">
						<ele>207</ele>
						<time>2021-02-03T12:42:19Z</time>
					</trkpt>
					<trkpt lat="46.671170" lon="5.141080">
						<ele>208</ele>
						<time>2021-02-03T12:42:33Z</time>
					</trkpt>
					<trkpt lat="46.671340" lon="5.140730">
						<ele>207</ele>
						<time>2021-02-03T12:42:38Z</time>
					</trkpt>
					<trkpt lat="46.671430" lon="5.140420">
						<ele>207</ele>
						<time>2021-02-03T12:42:42Z</time>
					</trkpt>
					<trkpt lat="46.671530" lon="5.140260">
						<ele>207</ele>
						<time>2021-02-03T12:42:45Z</time>
					</trkpt>
					<trkpt lat="46.671620" lon="5.140180">
						<ele>207</ele>
						<time>2021-02-03T12:42:47Z</time>
					</trkpt>
					<trkpt lat="46.677100" lon="5.137490">
						<ele>205</ele>
						<time>2021-02-03T12:44:30Z</time>
					</trkpt>
					<trkpt lat="46.677370" lon="5.137240">
						<ele>205</ele>
						<time>2021-02-03T12:44:35Z</time>
					</trkpt>
					<trkpt lat="46.677570" lon="5.137000">
						<ele>205</ele>
						<time>2021-02-03T12:44:40Z</time>
					</trkpt>
					<trkpt lat="46.677820" lon="5.136530">
						<ele>205</ele>
						<time>2021-02-03T12:44:47Z</time>
					</trkpt>
					<trkpt lat="46.677880" lon="5.136330">
						<ele>205</ele>
						<time>2021-02-03T12:44:50Z</time>
					</trkpt>
					<trkpt lat="46.677890" lon="5.136140">
						<ele>205</ele>
						<time>2021-02-03T12:44:52Z</time>
					</trkpt>
					<trkpt lat="46.678000" lon="5.135660">
						<ele>206</ele>
						<time>2021-02-03T12:44:58Z</time>
					</trkpt>
					<trkpt lat="46.678300" lon="5.134760">
						<ele>206</ele>
						<time>2021-02-03T12:45:11Z</time>
					</trkpt>
					<trkpt lat="46.678360" lon="5.134670">
						<ele>206</ele>
						<time>2021-02-03T12:45:12Z</time>
					</trkpt>
					<trkpt lat="46.678430" lon="5.134630">
						<ele>206</ele>
						<time>2021-02-03T12:45:14Z</time>
					</trkpt>
					<trkpt lat="46.678760" lon="5.134570">
						<ele>206</ele>
						<time>2021-02-03T12:45:19Z</time>
					</trkpt>
					<trkpt lat="46.679330" lon="5.134410">
						<ele>206</ele>
						<time>2021-02-03T12:45:30Z</time>
					</trkpt>
					<trkpt lat="46.679690" lon="5.134390">
						<ele>207</ele>
						<time>2021-02-03T12:45:36Z</time>
					</trkpt>
					<trkpt lat="46.679820" lon="5.134300">
						<ele>207</ele>
						<time>2021-02-03T12:45:39Z</time>
					</trkpt>
					<trkpt lat="46.680090" lon="5.133800">
						<ele>207</ele>
						<time>2021-02-03T12:45:47Z</time>
					</trkpt>
					<trkpt lat="46.679810" lon="5.133400">
						<ele>206</ele>
						<time>2021-02-03T12:45:54Z</time>
					</trkpt>
					<trkpt lat="46.679700" lon="5.133180">
						<ele>206</ele>
						<time>2021-02-03T12:45:57Z</time>
					</trkpt>
					<trkpt lat="46.679540" lon="5.132720">
						<ele>206</ele>
						<time>2021-02-03T12:46:03Z</time>
					</trkpt>
					<trkpt lat="46.679540" lon="5.132580">
						<ele>206</ele>
						<time>2021-02-03T12:46:05Z</time>
					</trkpt>
					<trkpt lat="46.679650" lon="5.131780">
						<ele>205</ele>
						<time>2021-02-03T12:46:15Z</time>
					</trkpt>
					<trkpt lat="46.679760" lon="5.131340">
						<ele>205</ele>
						<time>2021-02-03T12:46:21Z</time>
					</trkpt>
					<trkpt lat="46.679900" lon="5.131090">
						<ele>206</ele>
						<time>2021-02-03T12:46:24Z</time>
					</trkpt>
					<trkpt lat="46.680360" lon="5.130680">
						<ele>205</ele>
						<time>2021-02-03T12:46:34Z</time>
					</trkpt>
					<trkpt lat="46.680500" lon="5.130480">
						<ele>204</ele>
						<time>2021-02-03T12:46:38Z</time>
					</trkpt>
					<trkpt lat="46.680490" lon="5.130210">
						<ele>205</ele>
						<time>2021-02-03T12:46:41Z</time>
					</trkpt>
					<trkpt lat="46.680390" lon="5.129510">
						<ele>206</ele>
						<time>2021-02-03T12:46:50Z</time>
					</trkpt>
					<trkpt lat="46.680370" lon="5.129180">
						<ele>206</ele>
						<time>2021-02-03T12:46:54Z</time>
					</trkpt>
					<trkpt lat="46.680370" lon="5.128160">
						<ele>206</ele>
						<time>2021-02-03T12:47:06Z</time>
					</trkpt>
					<trkpt lat="46.680380" lon="5.127850">
						<ele>206</ele>
						<time>2021-02-03T12:47:10Z</time>
					</trkpt>
					<trkpt lat="46.680410" lon="5.127670">
						<ele>206</ele>
						<time>2021-02-03T12:47:12Z</time>
					</trkpt>
					<trkpt lat="46.680560" lon="5.127330">
						<ele>206</ele>
						<time>2021-02-03T12:47:17Z</time>
					</trkpt>
					<trkpt lat="46.681050" lon="5.126970">
						<ele>205</ele>
						<time>2021-02-03T12:47:27Z</time>
					</trkpt>
					<trkpt lat="46.681300" lon="5.126500">
						<ele>205</ele>
						<time>2021-02-03T12:47:34Z</time>
					</trkpt>
					<trkpt lat="46.681370" lon="5.126290">
						<ele>205</ele>
						<time>2021-02-03T12:47:37Z</time>
					</trkpt>
					<trkpt lat="46.681370" lon="5.126120">
						<ele>205</ele>
						<time>2021-02-03T12:47:39Z</time>
					</trkpt>
					<trkpt lat="46.681290" lon="5.125890">
						<ele>205</ele>
						<time>2021-02-03T12:47:42Z</time>
					</trkpt>
					<trkpt lat="46.681100" lon="5.125590">
						<ele>205</ele>
						<time>2021-02-03T12:47:47Z</time>
					</trkpt>
					<trkpt lat="46.680890" lon="5.125180">
						<ele>205</ele>
						<time>2021-02-03T12:47:53Z</time>
					</trkpt>
					<trkpt lat="46.680730" lon="5.124790">
						<ele>205</ele>
						<time>2021-02-03T12:47:59Z</time>
					</trkpt>
					<trkpt lat="46.680670" lon="5.124580">
						<ele>205</ele>
						<time>2021-02-03T12:48:02Z</time>
					</trkpt>
					<trkpt lat="46.680670" lon="5.124350">
						<ele>204</ele>
						<time>2021-02-03T12:48:05Z</time>
					</trkpt>
					<trkpt lat="46.680730" lon="5.124060">
						<ele>204</ele>
						<time>2021-02-03T12:48:08Z</time>
					</trkpt>
					<trkpt lat="46.680790" lon="5.123910">
						<ele>204</ele>
						<time>2021-02-03T12:48:10Z</time>
					</trkpt>
					<trkpt lat="46.680860" lon="5.123790">
						<ele>204</ele>
						<time>2021-02-03T12:48:12Z</time>
					</trkpt>
					<trkpt lat="46.681360" lon="5.123180">
						<ele>204</ele>
						<time>2021-02-03T12:48:24Z</time>
					</trkpt>
					<trkpt lat="46.681720" lon="5.122400">
						<ele>205</ele>
						<time>2021-02-03T12:48:35Z</time>
					</trkpt>
					<trkpt lat="46.681860" lon="5.122030">
						<ele>206</ele>
						<time>2021-02-03T12:48:40Z</time>
					</trkpt>
					<trkpt lat="46.682050" lon="5.121300">
						<ele>206</ele>
						<time>2021-02-03T12:48:50Z</time>
					</trkpt>
					<trkpt lat="46.682200" lon="5.120500">
						<ele>206</ele>
						<time>2021-02-03T12:49:00Z</time>
					</trkpt>
					<trkpt lat="46.682210" lon="5.120190">
						<ele>205</ele>
						<time>2021-02-03T12:49:04Z</time>
					</trkpt>
					<trkpt lat="46.682170" lon="5.119940">
						<ele>205</ele>
						<time>2021-02-03T12:49:07Z</time>
					</trkpt>
					<trkpt lat="46.682110" lon="5.119760">
						<ele>205</ele>
						<time>2021-02-03T12:49:09Z</time>
					</trkpt>
					<trkpt lat="46.682040" lon="5.119610">
						<ele>205</ele>
						<time>2021-02-03T12:49:12Z</time>
					</trkpt>
					<trkpt lat="46.681520" lon="5.118780">
						<ele>206</ele>
						<time>2021-02-03T12:49:25Z</time>
					</trkpt>
					<trkpt lat="46.681480" lon="5.118450">
						<ele>206</ele>
						<time>2021-02-03T12:49:30Z</time>
					</trkpt>
					<trkpt lat="46.681740" lon="5.116550">
						<ele>205</ele>
						<time>2021-02-03T12:49:53Z</time>
					</trkpt>
					<trkpt lat="46.681810" lon="5.116260">
						<ele>205</ele>
						<time>2021-02-03T12:49:57Z</time>
					</trkpt>
					<trkpt lat="46.682160" lon="5.115440">
						<ele>205</ele>
						<time>2021-02-03T12:50:09Z</time>
					</trkpt>
					<trkpt lat="46.682180" lon="5.115340">
						<ele>205</ele>
						<time>2021-02-03T12:50:10Z</time>
					</trkpt>
					<trkpt lat="46.682690" lon="5.116160">
						<ele>206</ele>
						<time>2021-02-03T12:50:23Z</time>
					</trkpt>
					<trkpt lat="46.682870" lon="5.116580">
						<ele>206</ele>
						<time>2021-02-03T12:50:30Z</time>
					</trkpt>
					<trkpt lat="46.683080" lon="5.117180">
						<ele>206</ele>
						<time>2021-02-03T12:50:38Z</time>
					</trkpt>
					<trkpt lat="46.683220" lon="5.117420">
						<ele>206</ele>
						<time>2021-02-03T12:50:42Z</time>
					</trkpt>
					<trkpt lat="46.683440" lon="5.117630">
						<ele>206</ele>
						<time>2021-02-03T12:50:46Z</time>
					</trkpt>
					<trkpt lat="46.683800" lon="5.117870">
						<ele>205</ele>
						<time>2021-02-03T12:50:53Z</time>
					</trkpt>
					<trkpt lat="46.683920" lon="5.117980">
						<ele>205</ele>
						<time>2021-02-03T12:50:56Z</time>
					</trkpt>
					<trkpt lat="46.684050" lon="5.118190">
						<ele>205</ele>
						<time>2021-02-03T12:50:59Z</time>
					</trkpt>
					<trkpt lat="46.684150" lon="5.118420">
						<ele>205</ele>
						<time>2021-02-03T12:51:03Z</time>
					</trkpt>
					<trkpt lat="46.684510" lon="5.118490">
						<ele>206</ele>
						<time>2021-02-03T12:51:09Z</time>
					</trkpt>
					<trkpt lat="46.685730" lon="5.118640">
						<ele>208</ele>
						<time>2021-02-03T12:51:31Z</time>
					</trkpt>
					<trkpt lat="46.686880" lon="5.118820">
						<ele>209</ele>
						<time>2021-02-03T12:51:51Z</time>
					</trkpt>
					<trkpt lat="46.687550" lon="5.118950">
						<ele>209</ele>
						<time>2021-02-03T12:52:03Z</time>
					</trkpt>
					<trkpt lat="46.687880" lon="5.119100">
						<ele>208</ele>
						<time>2021-02-03T12:52:10Z</time>
					</trkpt>
					<trkpt lat="46.691040" lon="5.121760">
						<ele>213</ele>
						<time>2021-02-03T12:53:15Z</time>
					</trkpt>
					<trkpt lat="46.691860" lon="5.121740">
						<ele>214</ele>
						<time>2021-02-03T12:53:29Z</time>
					</trkpt>
					<trkpt lat="46.692330" lon="5.121700">
						<ele>213</ele>
						<time>2021-02-03T12:53:38Z</time>
					</trkpt>
					<trkpt lat="46.694660" lon="5.122100">
						<ele>210</ele>
						<time>2021-02-03T12:54:19Z</time>
					</trkpt>
					<trkpt lat="46.695400" lon="5.122250">
						<ele>211</ele>
						<time>2021-02-03T12:54:33Z</time>
					</trkpt>
					<trkpt lat="46.697670" lon="5.122360">
						<ele>211</ele>
						<time>2021-02-03T12:55:13Z</time>
					</trkpt>
					<trkpt lat="46.698960" lon="5.122310">
						<ele>210</ele>
						<time>2021-02-03T12:55:36Z</time>
					</trkpt>
					<trkpt lat="46.701350" lon="5.121860">
						<ele>209</ele>
						<time>2021-02-03T12:56:19Z</time>
					</trkpt>
					<trkpt lat="46.701320" lon="5.121760">
						<ele>208</ele>
						<time>2021-02-03T12:56:20Z</time>
					</trkpt>
					<trkpt lat="46.700750" lon="5.120610">
						<ele>207</ele>
						<time>2021-02-03T12:56:37Z</time>
					</trkpt>
					<trkpt lat="46.700510" lon="5.119980">
						<ele>206</ele>
						<time>2021-02-03T12:56:46Z</time>
					</trkpt>
					<trkpt lat="46.700380" lon="5.119340">
						<ele>205</ele>
						<time>2021-02-03T12:56:54Z</time>
					</trkpt>
					<trkpt lat="46.700340" lon="5.119020">
						<ele>205</ele>
						<time>2021-02-03T12:56:58Z</time>
					</trkpt>
					<trkpt lat="46.700390" lon="5.118530">
						<ele>204</ele>
						<time>2021-02-03T12:57:04Z</time>
					</trkpt>
					<trkpt lat="46.700440" lon="5.118310">
						<ele>204</ele>
						<time>2021-02-03T12:57:07Z</time>
					</trkpt>
					<trkpt lat="46.700900" lon="5.117380">
						<ele>205</ele>
						<time>2021-02-03T12:57:21Z</time>
					</trkpt>
					<trkpt lat="46.701160" lon="5.116720">
						<ele>204</ele>
						<time>2021-02-03T12:57:31Z</time>
					</trkpt>
					<trkpt lat="46.701590" lon="5.116040">
						<ele>203</ele>
						<time>2021-02-03T12:57:42Z</time>
					</trkpt>
					<trkpt lat="46.701620" lon="5.115930">
						<ele>203</ele>
						<time>2021-02-03T12:57:43Z</time>
					</trkpt>
					<trkpt lat="46.701610" lon="5.115600">
						<ele>203</ele>
						<time>2021-02-03T12:57:47Z</time>
					</trkpt>
					<trkpt lat="46.701380" lon="5.112980">
						<ele>203</ele>
						<time>2021-02-03T12:58:20Z</time>
					</trkpt>
					<trkpt lat="46.701390" lon="5.112790">
						<ele>203</ele>
						<time>2021-02-03T12:58:22Z</time>
					</trkpt>
					<trkpt lat="46.701530" lon="5.112500">
						<ele>204</ele>
						<time>2021-02-03T12:58:26Z</time>
					</trkpt>
					<trkpt lat="46.701640" lon="5.112170">
						<ele>204</ele>
						<time>2021-02-03T12:58:31Z</time>
					</trkpt>
					<trkpt lat="46.701660" lon="5.111950">
						<ele>204</ele>
						<time>2021-02-03T12:58:33Z</time>
					</trkpt>
					<trkpt lat="46.702140" lon="5.112170">
						<ele>203</ele>
						<time>2021-02-03T12:58:42Z</time>
					</trkpt>
					<trkpt lat="46.703380" lon="5.112150">
						<ele>198</ele>
						<time>2021-02-03T12:59:04Z</time>
					</trkpt>
					<trkpt lat="46.703580" lon="5.112080">
						<ele>198</ele>
						<time>2021-02-03T12:59:08Z</time>
					</trkpt>
					<trkpt lat="46.703740" lon="5.111960">
						<ele>198</ele>
						<time>2021-02-03T12:59:11Z</time>
					</trkpt>
					<trkpt lat="46.703890" lon="5.111780">
						<ele>199</ele>
						<time>2021-02-03T12:59:15Z</time>
					</trkpt>
					<trkpt lat="46.704020" lon="5.111540">
						<ele>200</ele>
						<time>2021-02-03T12:59:18Z</time>
					</trkpt>
					<trkpt lat="46.704100" lon="5.111250">
						<ele>201</ele>
						<time>2021-02-03T12:59:22Z</time>
					</trkpt>
					<trkpt lat="46.704780" lon="5.108230">
						<ele>206</ele>
						<time>2021-02-03T13:00:01Z</time>
					</trkpt>
					<trkpt lat="46.704930" lon="5.107930">
						<ele>205</ele>
						<time>2021-02-03T13:00:06Z</time>
					</trkpt>
					<trkpt lat="46.705190" lon="5.107680">
						<ele>204</ele>
						<time>2021-02-03T13:00:11Z</time>
					</trkpt>
					<trkpt lat="46.705430" lon="5.107640">
						<ele>204</ele>
						<time>2021-02-03T13:00:15Z</time>
					</trkpt>
					<trkpt lat="46.705670" lon="5.107650">
						<ele>203</ele>
						<time>2021-02-03T13:00:20Z</time>
					</trkpt>
					<trkpt lat="46.706190" lon="5.107760">
						<ele>204</ele>
						<time>2021-02-03T13:00:29Z</time>
					</trkpt>
					<trkpt lat="46.706750" lon="5.107920">
						<ele>206</ele>
						<time>2021-02-03T13:00:39Z</time>
					</trkpt>
					<trkpt lat="46.707610" lon="5.108450">
						<ele>206</ele>
						<time>2021-02-03T13:00:56Z</time>
					</trkpt>
					<trkpt lat="46.708230" lon="5.108610">
						<ele>207</ele>
						<time>2021-02-03T13:01:07Z</time>
					</trkpt>
					<trkpt lat="46.708510" lon="5.108610">
						<ele>207</ele>
						<time>2021-02-03T13:01:12Z</time>
					</trkpt>
					<trkpt lat="46.709270" lon="5.108380">
						<ele>205</ele>
						<time>2021-02-03T13:01:26Z</time>
					</trkpt>
					<trkpt lat="46.709280" lon="5.108060">
						<ele>205</ele>
						<time>2021-02-03T13:01:30Z</time>
					</trkpt>
					<trkpt lat="46.709200" lon="5.106740">
						<ele>206</ele>
						<time>2021-02-03T13:01:46Z</time>
					</trkpt>
					<trkpt lat="46.708990" lon="5.104250">
						<ele>204</ele>
						<time>2021-02-03T13:02:16Z</time>
					</trkpt>
					<trkpt lat="46.708940" lon="5.104000">
						<ele>204</ele>
						<time>2021-02-03T13:02:20Z</time>
					</trkpt>
					<trkpt lat="46.707000" lon="5.097540">
						<ele>195</ele>
						<time>2021-02-03T13:03:46Z</time>
					</trkpt>
					<trkpt lat="46.706590" lon="5.096570">
						<ele>192</ele>
						<time>2021-02-03T13:04:00Z</time>
					</trkpt>
					<trkpt lat="46.705830" lon="5.095150">
						<ele>190</ele>
						<time>2021-02-03T13:04:22Z</time>
					</trkpt>
					<trkpt lat="46.705060" lon="5.094220">
						<ele>196</ele>
						<time>2021-02-03T13:04:39Z</time>
					</trkpt>
					<trkpt lat="46.704820" lon="5.094020">
						<ele>196</ele>
						<time>2021-02-03T13:04:44Z</time>
					</trkpt>
					<trkpt lat="46.704740" lon="5.093230">
						<ele>194</ele>
						<time>2021-02-03T13:04:54Z</time>
					</trkpt>
					<trkpt lat="46.704660" lon="5.091890">
						<ele>193</ele>
						<time>2021-02-03T13:05:10Z</time>
					</trkpt>
					<trkpt lat="46.704320" lon="5.091050">
						<ele>193</ele>
						<time>2021-02-03T13:05:22Z</time>
					</trkpt>
					<trkpt lat="46.704080" lon="5.089550">
						<ele>198</ele>
						<time>2021-02-03T13:05:41Z</time>
					</trkpt>
					<trkpt lat="46.704370" lon="5.087730">
						<ele>200</ele>
						<time>2021-02-03T13:06:04Z</time>
					</trkpt>
					<trkpt lat="46.704410" lon="5.086500">
						<ele>201</ele>
						<time>2021-02-03T13:06:19Z</time>
					</trkpt>
					<trkpt lat="46.704410" lon="5.085170">
						<ele>203</ele>
						<time>2021-02-03T13:06:35Z</time>
					</trkpt>
					<trkpt lat="46.704350" lon="5.084900">
						<ele>203</ele>
						<time>2021-02-03T13:06:39Z</time>
					</trkpt>
					<trkpt lat="46.704070" lon="5.084220">
						<ele>203</ele>
						<time>2021-02-03T13:06:48Z</time>
					</trkpt>
					<trkpt lat="46.704080" lon="5.084100">
						<ele>203</ele>
						<time>2021-02-03T13:06:50Z</time>
					</trkpt>
					<trkpt lat="46.704190" lon="5.083880">
						<ele>203</ele>
						<time>2021-02-03T13:06:53Z</time>
					</trkpt>
					<trkpt lat="46.704390" lon="5.083220">
						<ele>203</ele>
						<time>2021-02-03T13:07:02Z</time>
					</trkpt>
					<trkpt lat="46.704430" lon="5.082950">
						<ele>203</ele>
						<time>2021-02-03T13:07:05Z</time>
					</trkpt>
					<trkpt lat="46.704370" lon="5.082730">
						<ele>204</ele>
						<time>2021-02-03T13:07:08Z</time>
					</trkpt>
					<trkpt lat="46.703830" lon="5.081450">
						<ele>202</ele>
						<time>2021-02-03T13:07:27Z</time>
					</trkpt>
					<trkpt lat="46.703770" lon="5.081240">
						<ele>202</ele>
						<time>2021-02-03T13:07:29Z</time>
					</trkpt>
					<trkpt lat="46.703780" lon="5.080980">
						<ele>202</ele>
						<time>2021-02-03T13:07:32Z</time>
					</trkpt>
					<trkpt lat="46.704150" lon="5.079990">
						<ele>201</ele>
						<time>2021-02-03T13:07:46Z</time>
					</trkpt>
					<trkpt lat="46.704840" lon="5.080040">
						<ele>199</ele>
						<time>2021-02-03T13:07:59Z</time>
					</trkpt>
					<trkpt lat="46.706120" lon="5.080040">
						<ele>197</ele>
						<time>2021-02-03T13:08:21Z</time>
					</trkpt>
					<trkpt lat="46.706440" lon="5.079990">
						<ele>196</ele>
						<time>2021-02-03T13:08:27Z</time>
					</trkpt>
					<trkpt lat="46.706880" lon="5.079870">
						<ele>195</ele>
						<time>2021-02-03T13:08:35Z</time>
					</trkpt>
					<trkpt lat="46.708190" lon="5.079430">
						<ele>196</ele>
						<time>2021-02-03T13:08:59Z</time>
					</trkpt>
					<trkpt lat="46.708590" lon="5.079250">
						<ele>195</ele>
						<time>2021-02-03T13:09:06Z</time>
					</trkpt>
					<trkpt lat="46.708640" lon="5.079180">
						<ele>195</ele>
						<time>2021-02-03T13:09:08Z</time>
					</trkpt>
					<trkpt lat="46.708710" lon="5.078990">
						<ele>195</ele>
						<time>2021-02-03T13:09:10Z</time>
					</trkpt>
					<trkpt lat="46.708630" lon="5.078720">
						<ele>194</ele>
						<time>2021-02-03T13:09:14Z</time>
					</trkpt>
					<trkpt lat="46.708590" lon="5.078100">
						<ele>192</ele>
						<time>2021-02-03T13:09:21Z</time>
					</trkpt>
					<trkpt lat="46.708600" lon="5.077870">
						<ele>192</ele>
						<time>2021-02-03T13:09:24Z</time>
					</trkpt>
					<trkpt lat="46.708630" lon="5.077610">
						<ele>191</ele>
						<time>2021-02-03T13:09:27Z</time>
					</trkpt>
					<trkpt lat="46.708770" lon="5.077240">
						<ele>190</ele>
						<time>2021-02-03T13:09:33Z</time>
					</trkpt>
					<trkpt lat="46.708870" lon="5.076700">
						<ele>190</ele>
						<time>2021-02-03T13:09:39Z</time>
					</trkpt>
					<trkpt lat="46.708900" lon="5.076380">
						<ele>189</ele>
						<time>2021-02-03T13:09:43Z</time>
					</trkpt>
					<trkpt lat="46.708920" lon="5.075620">
						<ele>189</ele>
						<time>2021-02-03T13:09:53Z</time>
					</trkpt>
					<trkpt lat="46.708890" lon="5.075020">
						<ele>191</ele>
						<time>2021-02-03T13:10:00Z</time>
					</trkpt>
					<trkpt lat="46.708390" lon="5.073760">
						<ele>196</ele>
						<time>2021-02-03T13:10:18Z</time>
					</trkpt>
					<trkpt lat="46.708240" lon="5.073450">
						<ele>197</ele>
						<time>2021-02-03T13:10:22Z</time>
					</trkpt>
					<trkpt lat="46.707350" lon="5.072280">
						<ele>198</ele>
						<time>2021-02-03T13:10:44Z</time>
					</trkpt>
					<trkpt lat="46.707220" lon="5.072050">
						<ele>198</ele>
						<time>2021-02-03T13:10:47Z</time>
					</trkpt>
					<trkpt lat="46.707180" lon="5.071850">
						<ele>198</ele>
						<time>2021-02-03T13:10:50Z</time>
					</trkpt>
					<trkpt lat="46.707180" lon="5.071500">
						<ele>198</ele>
						<time>2021-02-03T13:10:54Z</time>
					</trkpt>
					<trkpt lat="46.707300" lon="5.070150">
						<ele>195</ele>
						<time>2021-02-03T13:11:11Z</time>
					</trkpt>
					<trkpt lat="46.707300" lon="5.069910">
						<ele>195</ele>
						<time>2021-02-03T13:11:14Z</time>
					</trkpt>
					<trkpt lat="46.709310" lon="5.067940">
						<ele>195</ele>
						<time>2021-02-03T13:11:57Z</time>
					</trkpt>
					<trkpt lat="46.709900" lon="5.067130">
						<ele>191</ele>
						<time>2021-02-03T13:12:11Z</time>
					</trkpt>
					<trkpt lat="46.710110" lon="5.066970">
						<ele>189</ele>
						<time>2021-02-03T13:12:15Z</time>
					</trkpt>
					<trkpt lat="46.710460" lon="5.066830">
						<ele>187</ele>
						<time>2021-02-03T13:12:22Z</time>
					</trkpt>
					<trkpt lat="46.710590" lon="5.066710">
						<ele>186</ele>
						<time>2021-02-03T13:12:25Z</time>
					</trkpt>
					<trkpt lat="46.711310" lon="5.065020">
						<ele>183</ele>
						<time>2021-02-03T13:12:49Z</time>
					</trkpt>
					<trkpt lat="46.711310" lon="5.064430">
						<ele>184</ele>
						<time>2021-02-03T13:12:56Z</time>
					</trkpt>
					<trkpt lat="46.711500" lon="5.063070">
						<ele>188</ele>
						<time>2021-02-03T13:13:13Z</time>
					</trkpt>
					<trkpt lat="46.711560" lon="5.062820">
						<ele>188</ele>
						<time>2021-02-03T13:13:16Z</time>
					</trkpt>
					<trkpt lat="46.711630" lon="5.062600">
						<ele>188</ele>
						<time>2021-02-03T13:13:19Z</time>
					</trkpt>
					<trkpt lat="46.712080" lon="5.061930">
						<ele>190</ele>
						<time>2021-02-03T13:13:31Z</time>
					</trkpt>
					<trkpt lat="46.712060" lon="5.061680">
						<ele>190</ele>
						<time>2021-02-03T13:13:34Z</time>
					</trkpt>
					<trkpt lat="46.711670" lon="5.060920">
						<ele>195</ele>
						<time>2021-02-03T13:13:45Z</time>
					</trkpt>
					<trkpt lat="46.712280" lon="5.059700">
						<ele>194</ele>
						<time>2021-02-03T13:14:04Z</time>
					</trkpt>
					<trkpt lat="46.712340" lon="5.059620">
						<ele>194</ele>
						<time>2021-02-03T13:14:05Z</time>
					</trkpt>
					<trkpt lat="46.712580" lon="5.059420">
						<ele>194</ele>
						<time>2021-02-03T13:14:10Z</time>
					</trkpt>
					<trkpt lat="46.712740" lon="5.059210">
						<ele>194</ele>
						<time>2021-02-03T13:14:14Z</time>
					</trkpt>
					<trkpt lat="46.713080" lon="5.058000">
						<ele>194</ele>
						<time>2021-02-03T13:14:30Z</time>
					</trkpt>
					<trkpt lat="46.713210" lon="5.057690">
						<ele>194</ele>
						<time>2021-02-03T13:14:34Z</time>
					</trkpt>
					<trkpt lat="46.713540" lon="5.057140">
						<ele>194</ele>
						<time>2021-02-03T13:14:43Z</time>
					</trkpt>
					<trkpt lat="46.713760" lon="5.057300">
						<ele>194</ele>
						<time>2021-02-03T13:14:48Z</time>
					</trkpt>
					<trkpt lat="46.713910" lon="5.056490">
						<ele>192</ele>
						<time>2021-02-03T13:14:58Z</time>
					</trkpt>
					<trkpt lat="46.713980" lon="5.055950">
						<ele>191</ele>
						<time>2021-02-03T13:15:05Z</time>
					</trkpt>
					<trkpt lat="46.714000" lon="5.055080">
						<ele>188</ele>
						<time>2021-02-03T13:15:15Z</time>
					</trkpt>
					<trkpt lat="46.713850" lon="5.054520">
						<ele>187</ele>
						<time>2021-02-03T13:15:22Z</time>
					</trkpt>
					<trkpt lat="46.713870" lon="5.054000">
						<ele>187</ele>
						<time>2021-02-03T13:15:29Z</time>
					</trkpt>
					<trkpt lat="46.714000" lon="5.052790">
						<ele>188</ele>
						<time>2021-02-03T13:15:44Z</time>
					</trkpt>
					<trkpt lat="46.714090" lon="5.052580">
						<ele>188</ele>
						<time>2021-02-03T13:15:47Z</time>
					</trkpt>
					<trkpt lat="46.714360" lon="5.052460">
						<ele>189</ele>
						<time>2021-02-03T13:15:52Z</time>
					</trkpt>
					<trkpt lat="46.714460" lon="5.052310">
						<ele>190</ele>
						<time>2021-02-03T13:15:54Z</time>
					</trkpt>
					<trkpt lat="46.714530" lon="5.051620">
						<ele>192</ele>
						<time>2021-02-03T13:16:03Z</time>
					</trkpt>
					<trkpt lat="46.714470" lon="5.050490">
						<ele>195</ele>
						<time>2021-02-03T13:16:17Z</time>
					</trkpt>
					<trkpt lat="46.714490" lon="5.050110">
						<ele>195</ele>
						<time>2021-02-03T13:16:21Z</time>
					</trkpt>
					<trkpt lat="46.713900" lon="5.049860">
						<ele>196</ele>
						<time>2021-02-03T13:16:32Z</time>
					</trkpt>
					<trkpt lat="46.713060" lon="5.049700">
						<ele>194</ele>
						<time>2021-02-03T13:16:47Z</time>
					</trkpt>
					<trkpt lat="46.712460" lon="5.049620">
						<ele>192</ele>
						<time>2021-02-03T13:16:58Z</time>
					</trkpt>
					<trkpt lat="46.711650" lon="5.049580">
						<ele>193</ele>
						<time>2021-02-03T13:17:12Z</time>
					</trkpt>
					<trkpt lat="46.711440" lon="5.049600">
						<ele>193</ele>
						<time>2021-02-03T13:17:16Z</time>
					</trkpt>
					<trkpt lat="46.711150" lon="5.049810">
						<ele>193</ele>
						<time>2021-02-03T13:17:22Z</time>
					</trkpt>
					<trkpt lat="46.711010" lon="5.049650">
						<ele>193</ele>
						<time>2021-02-03T13:17:25Z</time>
					</trkpt>
					<trkpt lat="46.710640" lon="5.049110">
						<ele>191</ele>
						<time>2021-02-03T13:17:34Z</time>
					</trkpt>
					<trkpt lat="46.710490" lon="5.048790">
						<ele>190</ele>
						<time>2021-02-03T13:17:39Z</time>
					</trkpt>
					<trkpt lat="46.710350" lon="5.048360">
						<ele>189</ele>
						<time>2021-02-03T13:17:45Z</time>
					</trkpt>
					<trkpt lat="46.710140" lon="5.047560">
						<ele>189</ele>
						<time>2021-02-03T13:17:55Z</time>
					</trkpt>
					<trkpt lat="46.710130" lon="5.047120">
						<ele>190</ele>
						<time>2021-02-03T13:18:01Z</time>
					</trkpt>
					<trkpt lat="46.710690" lon="5.043210">
						<ele>191</ele>
						<time>2021-02-03T13:18:50Z</time>
					</trkpt>
					<trkpt lat="46.710880" lon="5.042290">
						<ele>191</ele>
						<time>2021-02-03T13:19:01Z</time>
					</trkpt>
					<trkpt lat="46.710880" lon="5.042060">
						<ele>191</ele>
						<time>2021-02-03T13:19:04Z</time>
					</trkpt>
					<trkpt lat="46.710800" lon="5.041850">
						<ele>189</ele>
						<time>2021-02-03T13:19:07Z</time>
					</trkpt>
					<trkpt lat="46.710300" lon="5.041160">
						<ele>187</ele>
						<time>2021-02-03T13:19:19Z</time>
					</trkpt>
					<trkpt lat="46.709950" lon="5.040610">
						<ele>187</ele>
						<time>2021-02-03T13:19:28Z</time>
					</trkpt>
					<trkpt lat="46.709000" lon="5.038830">
						<ele>185</ele>
						<time>2021-02-03T13:19:56Z</time>
					</trkpt>
					<trkpt lat="46.708930" lon="5.038740">
						<ele>185</ele>
						<time>2021-02-03T13:19:58Z</time>
					</trkpt>
					<trkpt lat="46.708800" lon="5.038670">
						<ele>184</ele>
						<time>2021-02-03T13:20:00Z</time>
					</trkpt>
					<trkpt lat="46.708460" lon="5.038570">
						<ele>182</ele>
						<time>2021-02-03T13:20:06Z</time>
					</trkpt>
					<trkpt lat="46.708390" lon="5.038530">
						<ele>181</ele>
						<time>2021-02-03T13:20:08Z</time>
					</trkpt>
					<trkpt lat="46.708110" lon="5.038290">
						<ele>180</ele>
						<time>2021-02-03T13:20:13Z</time>
					</trkpt>
					<trkpt lat="46.707990" lon="5.038130">
						<ele>180</ele>
						<time>2021-02-03T13:20:16Z</time>
					</trkpt>
					<trkpt lat="46.707880" lon="5.037890">
						<ele>180</ele>
						<time>2021-02-03T13:20:20Z</time>
					</trkpt>
					<trkpt lat="46.707780" lon="5.037570">
						<ele>181</ele>
						<time>2021-02-03T13:20:24Z</time>
					</trkpt>
					<trkpt lat="46.707520" lon="5.037070">
						<ele>182</ele>
						<time>2021-02-03T13:20:32Z</time>
					</trkpt>
					<trkpt lat="46.707500" lon="5.036700">
						<ele>183</ele>
						<time>2021-02-03T13:20:36Z</time>
					</trkpt>
					<trkpt lat="46.707420" lon="5.036350">
						<ele>184</ele>
						<time>2021-02-03T13:20:41Z</time>
					</trkpt>
					<trkpt lat="46.707730" lon="5.033820">
						<ele>187</ele>
						<time>2021-02-03T13:21:12Z</time>
					</trkpt>
					<trkpt lat="46.707990" lon="5.032730">
						<ele>188</ele>
						<time>2021-02-03T13:21:26Z</time>
					</trkpt>
					<trkpt lat="46.708330" lon="5.031580">
						<ele>187</ele>
						<time>2021-02-03T13:21:41Z</time>
					</trkpt>
					<trkpt lat="46.708840" lon="5.030170">
						<ele>188</ele>
						<time>2021-02-03T13:22:01Z</time>
					</trkpt>
					<trkpt lat="46.709440" lon="5.028630">
						<ele>191</ele>
						<time>2021-02-03T13:22:23Z</time>
					</trkpt>
					<trkpt lat="46.709650" lon="5.027750">
						<ele>191</ele>
						<time>2021-02-03T13:22:34Z</time>
					</trkpt>
					<trkpt lat="46.709750" lon="5.027200">
						<ele>191</ele>
						<time>2021-02-03T13:22:41Z</time>
					</trkpt>
					<trkpt lat="46.709890" lon="5.026000">
						<ele>192</ele>
						<time>2021-02-03T13:22:56Z</time>
					</trkpt>
					<trkpt lat="46.710200" lon="5.021180">
						<ele>192</ele>
						<time>2021-02-03T13:23:55Z</time>
					</trkpt>
					<trkpt lat="46.710230" lon="5.020070">
						<ele>191</ele>
						<time>2021-02-03T13:24:08Z</time>
					</trkpt>
					<trkpt lat="46.710220" lon="5.019220">
						<ele>193</ele>
						<time>2021-02-03T13:24:19Z</time>
					</trkpt>
					<trkpt lat="46.710370" lon="5.019280">
						<ele>192</ele>
						<time>2021-02-03T13:24:21Z</time>
					</trkpt>
					<trkpt lat="46.710390" lon="5.019110">
						<ele>193</ele>
						<time>2021-02-03T13:24:24Z</time>
					</trkpt>
					<trkpt lat="46.710380" lon="5.019000">
						<ele>193</ele>
						<time>2021-02-03T13:24:25Z</time>
					</trkpt>
					<trkpt lat="46.710320" lon="5.018820">
						<ele>193</ele>
						<time>2021-02-03T13:24:27Z</time>
					</trkpt>
					<trkpt lat="46.710150" lon="5.018460">
						<ele>193</ele>
						<time>2021-02-03T13:24:33Z</time>
					</trkpt>
					<trkpt lat="46.710030" lon="5.017420">
						<ele>193</ele>
						<time>2021-02-03T13:24:46Z</time>
					</trkpt>
					<trkpt lat="46.708700" lon="5.010480">
						<ele>196</ele>
						<time>2021-02-03T13:26:13Z</time>
					</trkpt>
					<trkpt lat="46.707430" lon="5.004020">
						<ele>196</ele>
						<time>2021-02-03T13:27:35Z</time>
					</trkpt>
					<trkpt lat="46.706800" lon="5.001030">
						<ele>196</ele>
						<time>2021-02-03T13:28:14Z</time>
					</trkpt>
					<trkpt lat="46.706770" lon="5.000750">
						<ele>196</ele>
						<time>2021-02-03T13:28:17Z</time>
					</trkpt>
					<trkpt lat="46.706790" lon="5.000630">
						<ele>197</ele>
						<time>2021-02-03T13:28:19Z</time>
					</trkpt>
					<trkpt lat="46.706980" lon="5.000710">
						<ele>197</ele>
						<time>2021-02-03T13:28:22Z</time>
					</trkpt>
					<trkpt lat="46.706860" lon="5.000150">
						<ele>198</ele>
						<time>2021-02-03T13:28:29Z</time>
					</trkpt>
					<trkpt lat="46.706450" lon="4.999450">
						<ele>198</ele>
						<time>2021-02-03T13:28:40Z</time>
					</trkpt>
					<trkpt lat="46.705990" lon="4.997590">
						<ele>193</ele>
						<time>2021-02-03T13:29:05Z</time>
					</trkpt>
					<trkpt lat="46.705430" lon="4.995170">
						<ele>190</ele>
						<time>2021-02-03T13:29:36Z</time>
					</trkpt>
					<trkpt lat="46.705260" lon="4.994250">
						<ele>189</ele>
						<time>2021-02-03T13:29:47Z</time>
					</trkpt>
					<trkpt lat="46.705030" lon="4.992430">
						<ele>187</ele>
						<time>2021-02-03T13:30:10Z</time>
					</trkpt>
					<trkpt lat="46.704990" lon="4.990170">
						<ele>189</ele>
						<time>2021-02-03T13:30:38Z</time>
					</trkpt>
					<trkpt lat="46.705030" lon="4.989310">
						<ele>189</ele>
						<time>2021-02-03T13:30:48Z</time>
					</trkpt>
					<trkpt lat="46.705020" lon="4.987070">
						<ele>190</ele>
						<time>2021-02-03T13:31:15Z</time>
					</trkpt>
					<trkpt lat="46.705070" lon="4.986400">
						<ele>190</ele>
						<time>2021-02-03T13:31:24Z</time>
					</trkpt>
					<trkpt lat="46.705060" lon="4.986340">
						<ele>190</ele>
						<time>2021-02-03T13:31:24Z</time>
					</trkpt>
					<trkpt lat="46.705000" lon="4.986320">
						<ele>190</ele>
						<time>2021-02-03T13:31:25Z</time>
					</trkpt>
					<trkpt lat="46.705040" lon="4.986070">
						<ele>191</ele>
						<time>2021-02-03T13:31:29Z</time>
					</trkpt>
					<trkpt lat="46.705220" lon="4.985360">
						<ele>189</ele>
						<time>2021-02-03T13:31:38Z</time>
					</trkpt>
					<trkpt lat="46.705460" lon="4.984720">
						<ele>188</ele>
						<time>2021-02-03T13:31:47Z</time>
					</trkpt>
					<trkpt lat="46.705970" lon="4.983730">
						<ele>185</ele>
						<time>2021-02-03T13:32:02Z</time>
					</trkpt>
					<trkpt lat="46.706490" lon="4.982960">
						<ele>184</ele>
						<time>2021-02-03T13:32:15Z</time>
					</trkpt>
					<trkpt lat="46.706980" lon="4.982400">
						<ele>185</ele>
						<time>2021-02-03T13:32:26Z</time>
					</trkpt>
					<trkpt lat="46.707310" lon="4.982100">
						<ele>184</ele>
						<time>2021-02-03T13:32:33Z</time>
					</trkpt>
					<trkpt lat="46.708420" lon="4.981310">
						<ele>181</ele>
						<time>2021-02-03T13:32:55Z</time>
					</trkpt>
					<trkpt lat="46.710570" lon="4.979630">
						<ele>180</ele>
						<time>2021-02-03T13:33:38Z</time>
					</trkpt>
					<trkpt lat="46.711280" lon="4.978890">
						<ele>178</ele>
						<time>2021-02-03T13:33:54Z</time>
					</trkpt>
					<trkpt lat="46.712820" lon="4.976950">
						<ele>182</ele>
						<time>2021-02-03T13:34:30Z</time>
					</trkpt>
					<trkpt lat="46.713310" lon="4.976430">
						<ele>181</ele>
						<time>2021-02-03T13:34:41Z</time>
					</trkpt>
					<trkpt lat="46.713760" lon="4.976080">
						<ele>182</ele>
						<time>2021-02-03T13:34:50Z</time>
					</trkpt>
					<trkpt lat="46.714270" lon="4.975780">
						<ele>183</ele>
						<time>2021-02-03T13:35:00Z</time>
					</trkpt>
					<trkpt lat="46.715810" lon="4.975190">
						<ele>184</ele>
						<time>2021-02-03T13:35:28Z</time>
					</trkpt>
					<trkpt lat="46.716190" lon="4.974970">
						<ele>184</ele>
						<time>2021-02-03T13:35:35Z</time>
					</trkpt>
					<trkpt lat="46.716790" lon="4.974500">
						<ele>186</ele>
						<time>2021-02-03T13:35:48Z</time>
					</trkpt>
					<trkpt lat="46.722030" lon="4.969330">
						<ele>188</ele>
						<time>2021-02-03T13:37:40Z</time>
					</trkpt>
					<trkpt lat="46.722410" lon="4.968890">
						<ele>189</ele>
						<time>2021-02-03T13:37:49Z</time>
					</trkpt>
					<trkpt lat="46.722950" lon="4.968150">
						<ele>190</ele>
						<time>2021-02-03T13:38:02Z</time>
					</trkpt>
					<trkpt lat="46.723780" lon="4.966750">
						<ele>190</ele>
						<time>2021-02-03T13:38:24Z</time>
					</trkpt>
					<trkpt lat="46.724050" lon="4.966160">
						<ele>189</ele>
						<time>2021-02-03T13:38:33Z</time>
					</trkpt>
					<trkpt lat="46.725860" lon="4.961860">
						<ele>189</ele>
						<time>2021-02-03T13:39:35Z</time>
					</trkpt>
					<trkpt lat="46.725920" lon="4.961760">
						<ele>189</ele>
						<time>2021-02-03T13:39:36Z</time>
					</trkpt>
					<trkpt lat="46.726420" lon="4.960530">
						<ele>190</ele>
						<time>2021-02-03T13:39:54Z</time>
					</trkpt>
					<trkpt lat="46.726500" lon="4.960140">
						<ele>190</ele>
						<time>2021-02-03T13:39:59Z</time>
					</trkpt>
					<trkpt lat="46.727240" lon="4.958320">
						<ele>190</ele>
						<time>2021-02-03T13:40:25Z</time>
					</trkpt>
					<trkpt lat="46.727300" lon="4.958210">
						<ele>189</ele>
						<time>2021-02-03T13:40:26Z</time>
					</trkpt>
					<trkpt lat="46.727380" lon="4.958150">
						<ele>189</ele>
						<time>2021-02-03T13:40:28Z</time>
					</trkpt>
					<trkpt lat="46.727460" lon="4.958010">
						<ele>189</ele>
						<time>2021-02-03T13:40:30Z</time>
					</trkpt>
					<trkpt lat="46.731690" lon="4.947930">
						<ele>195</ele>
						<time>2021-02-03T13:42:54Z</time>
					</trkpt>
					<trkpt lat="46.732710" lon="4.945470">
						<ele>194</ele>
						<time>2021-02-03T13:43:29Z</time>
					</trkpt>
					<trkpt lat="46.732750" lon="4.945330">
						<ele>194</ele>
						<time>2021-02-03T13:43:31Z</time>
					</trkpt>
					<trkpt lat="46.733560" lon="4.943470">
						<ele>196</ele>
						<time>2021-02-03T13:43:58Z</time>
					</trkpt>
					<trkpt lat="46.749140" lon="4.905980">
						<ele>186</ele>
						<time>2021-02-03T13:52:53Z</time>
					</trkpt>
					<trkpt lat="46.749500" lon="4.905320">
						<ele>185</ele>
						<time>2021-02-03T13:53:03Z</time>
					</trkpt>
					<trkpt lat="46.749700" lon="4.905090">
						<ele>184</ele>
						<time>2021-02-03T13:53:07Z</time>
					</trkpt>
					<trkpt lat="46.750160" lon="4.904460">
						<ele>185</ele>
						<time>2021-02-03T13:53:19Z</time>
					</trkpt>
					<trkpt lat="46.750710" lon="4.903810">
						<ele>184</ele>
						<time>2021-02-03T13:53:31Z</time>
					</trkpt>
					<trkpt lat="46.750920" lon="4.903690">
						<ele>183</ele>
						<time>2021-02-03T13:53:35Z</time>
					</trkpt>
					<trkpt lat="46.751000" lon="4.903680">
						<ele>183</ele>
						<time>2021-02-03T13:53:37Z</time>
					</trkpt>
					<trkpt lat="46.751730" lon="4.903050">
						<ele>183</ele>
						<time>2021-02-03T13:53:52Z</time>
					</trkpt>
					<trkpt lat="46.751840" lon="4.903110">
						<ele>183</ele>
						<time>2021-02-03T13:53:54Z</time>
					</trkpt>
					<trkpt lat="46.752640" lon="4.902680">
						<ele>182</ele>
						<time>2021-02-03T13:54:09Z</time>
					</trkpt>
					<trkpt lat="46.752910" lon="4.902450">
						<ele>183</ele>
						<time>2021-02-03T13:54:15Z</time>
					</trkpt>
					<trkpt lat="46.754880" lon="4.901450">
						<ele>181</ele>
						<time>2021-02-03T13:54:52Z</time>
					</trkpt>
					<trkpt lat="46.754820" lon="4.901030">
						<ele>180</ele>
						<time>2021-02-03T13:54:57Z</time>
					</trkpt>
					<trkpt lat="46.755020" lon="4.901200">
						<ele>180</ele>
						<time>2021-02-03T13:55:01Z</time>
					</trkpt>
					<trkpt lat="46.755160" lon="4.901260">
						<ele>181</ele>
						<time>2021-02-03T13:55:04Z</time>
					</trkpt>
					<trkpt lat="46.755560" lon="4.901110">
						<ele>180</ele>
						<time>2021-02-03T13:55:11Z</time>
					</trkpt>
					<trkpt lat="46.756060" lon="4.900960">
						<ele>180</ele>
						<time>2021-02-03T13:55:20Z</time>
					</trkpt>
					<trkpt lat="46.756880" lon="4.900820">
						<ele>179</ele>
						<time>2021-02-03T13:55:35Z</time>
					</trkpt>
					<trkpt lat="46.757690" lon="4.900830">
						<ele>177</ele>
						<time>2021-02-03T13:55:49Z</time>
					</trkpt>
					<trkpt lat="46.759610" lon="4.901000">
						<ele>178</ele>
						<time>2021-02-03T13:56:23Z</time>
					</trkpt>
					<trkpt lat="46.761530" lon="4.901120">
						<ele>178</ele>
						<time>2021-02-03T13:56:58Z</time>
					</trkpt>
					<trkpt lat="46.763140" lon="4.901290">
						<ele>177</ele>
						<time>2021-02-03T13:57:26Z</time>
					</trkpt>
					<trkpt lat="46.764430" lon="4.901080">
						<ele>177</ele>
						<time>2021-02-03T13:57:49Z</time>
					</trkpt>
					<trkpt lat="46.765340" lon="4.900680">
						<ele>177</ele>
						<time>2021-02-03T13:58:06Z</time>
					</trkpt>
					<trkpt lat="46.766530" lon="4.899640">
						<ele>176</ele>
						<time>2021-02-03T13:58:31Z</time>
					</trkpt>
					<trkpt lat="46.766940" lon="4.899180">
						<ele>176</ele>
						<time>2021-02-03T13:58:40Z</time>
					</trkpt>
					<trkpt lat="46.767640" lon="4.898130">
						<ele>176</ele>
						<time>2021-02-03T13:58:58Z</time>
					</trkpt>
					<trkpt lat="46.768230" lon="4.897060">
						<ele>177</ele>
						<time>2021-02-03T13:59:15Z</time>
					</trkpt>
					<trkpt lat="46.768560" lon="4.896560">
						<ele>179</ele>
						<time>2021-02-03T13:59:23Z</time>
					</trkpt>
					<trkpt lat="46.768770" lon="4.896290">
						<ele>179</ele>
						<time>2021-02-03T13:59:28Z</time>
					</trkpt>
					<trkpt lat="46.769020" lon="4.895800">
						<ele>180</ele>
						<time>2021-02-03T13:59:36Z</time>
					</trkpt>
					<trkpt lat="46.769120" lon="4.895740">
						<ele>180</ele>
						<time>2021-02-03T13:59:38Z</time>
					</trkpt>
					<trkpt lat="46.769300" lon="4.895920">
						<ele>180</ele>
						<time>2021-02-03T13:59:41Z</time>
					</trkpt>
					<trkpt lat="46.769600" lon="4.895390">
						<ele>180</ele>
						<time>2021-02-03T13:59:50Z</time>
					</trkpt>
					<trkpt lat="46.770250" lon="4.893790">
						<ele>180</ele>
						<time>2021-02-03T14:00:13Z</time>
					</trkpt>
					<trkpt lat="46.770280" lon="4.893580">
						<ele>180</ele>
						<time>2021-02-03T14:00:15Z</time>
					</trkpt>
					<trkpt lat="46.771290" lon="4.893380">
						<ele>180</ele>
						<time>2021-02-03T14:00:33Z</time>
					</trkpt>
					<trkpt lat="46.772940" lon="4.892980">
						<ele>180</ele>
						<time>2021-02-03T14:01:03Z</time>
					</trkpt>
					<trkpt lat="46.773090" lon="4.892180">
						<ele>179</ele>
						<time>2021-02-03T14:01:13Z</time>
					</trkpt>
					<trkpt lat="46.773370" lon="4.890920">
						<ele>180</ele>
						<time>2021-02-03T14:01:29Z</time>
					</trkpt>
					<trkpt lat="46.773470" lon="4.889960">
						<ele>178</ele>
						<time>2021-02-03T14:01:41Z</time>
					</trkpt>
					<trkpt lat="46.773490" lon="4.889450">
						<ele>178</ele>
						<time>2021-02-03T14:01:47Z</time>
					</trkpt>
					<trkpt lat="46.773480" lon="4.887080">
						<ele>177</ele>
						<time>2021-02-03T14:02:16Z</time>
					</trkpt>
					<trkpt lat="46.773510" lon="4.886980">
						<ele>177</ele>
						<time>2021-02-03T14:02:18Z</time>
					</trkpt>
					<trkpt lat="46.773480" lon="4.886950">
						<ele>177</ele>
						<time>2021-02-03T14:02:18Z</time>
					</trkpt>
					<trkpt lat="46.772990" lon="4.886800">
						<ele>177</ele>
						<time>2021-02-03T14:02:27Z</time>
					</trkpt>
					<trkpt lat="46.772530" lon="4.886610">
						<ele>177</ele>
						<time>2021-02-03T14:02:36Z</time>
					</trkpt>
					<trkpt lat="46.772080" lon="4.886360">
						<ele>176</ele>
						<time>2021-02-03T14:02:44Z</time>
					</trkpt>
					<trkpt lat="46.771970" lon="4.886270">
						<ele>176</ele>
						<time>2021-02-03T14:02:46Z</time>
					</trkpt>
					<trkpt lat="46.771920" lon="4.886170">
						<ele>176</ele>
						<time>2021-02-03T14:02:48Z</time>
					</trkpt>
					<trkpt lat="46.771900" lon="4.886030">
						<ele>175</ele>
						<time>2021-02-03T14:02:50Z</time>
					</trkpt>
					<trkpt lat="46.772000" lon="4.884740">
						<ele>174</ele>
						<time>2021-02-03T14:03:05Z</time>
					</trkpt>
					<trkpt lat="46.772110" lon="4.883940">
						<ele>173</ele>
						<time>2021-02-03T14:03:15Z</time>
					</trkpt>
					<trkpt lat="46.772220" lon="4.882820">
						<ele>173</ele>
						<time>2021-02-03T14:03:29Z</time>
					</trkpt>
					<trkpt lat="46.772260" lon="4.882140">
						<ele>173</ele>
						<time>2021-02-03T14:03:38Z</time>
					</trkpt>
					<trkpt lat="46.772080" lon="4.880050">
						<ele>176</ele>
						<time>2021-02-03T14:04:03Z</time>
					</trkpt>
					<trkpt lat="46.772140" lon="4.879520">
						<ele>177</ele>
						<time>2021-02-03T14:04:10Z</time>
					</trkpt>
					<trkpt lat="46.772400" lon="4.878540">
						<ele>174</ele>
						<time>2021-02-03T14:04:23Z</time>
					</trkpt>
					<trkpt lat="46.772550" lon="4.878130">
						<ele>172</ele>
						<time>2021-02-03T14:04:28Z</time>
					</trkpt>
					<trkpt lat="46.772670" lon="4.877870">
						<ele>173</ele>
						<time>2021-02-03T14:04:32Z</time>
					</trkpt>
					<trkpt lat="46.772870" lon="4.877830">
						<ele>173</ele>
						<time>2021-02-03T14:04:36Z</time>
					</trkpt>
					<trkpt lat="46.774600" lon="4.878320">
						<ele>174</ele>
						<time>2021-02-03T14:05:07Z</time>
					</trkpt>
					<trkpt lat="46.774730" lon="4.878390">
						<ele>174</ele>
						<time>2021-02-03T14:05:09Z</time>
					</trkpt>
					<trkpt lat="46.774850" lon="4.878500">
						<ele>174</ele>
						<time>2021-02-03T14:05:12Z</time>
					</trkpt>
					<trkpt lat="46.774990" lon="4.878380">
						<ele>174</ele>
						<time>2021-02-03T14:05:15Z</time>
					</trkpt>
					<trkpt lat="46.775090" lon="4.878180">
						<ele>174</ele>
						<time>2021-02-03T14:05:18Z</time>
					</trkpt>
					<trkpt lat="46.775200" lon="4.878080">
						<ele>173</ele>
						<time>2021-02-03T14:05:20Z</time>
					</trkpt>
					<trkpt lat="46.775610" lon="4.877860">
						<ele>173</ele>
						<time>2021-02-03T14:05:28Z</time>
					</trkpt>
					<trkpt lat="46.775850" lon="4.877130">
						<ele>173</ele>
						<time>2021-02-03T14:05:38Z</time>
					</trkpt>
					<trkpt lat="46.775930" lon="4.876840">
						<ele>173</ele>
						<time>2021-02-03T14:05:42Z</time>
					</trkpt>
					<trkpt lat="46.776010" lon="4.876410">
						<ele>172</ele>
						<time>2021-02-03T14:05:47Z</time>
					</trkpt>
					<trkpt lat="46.776040" lon="4.876370">
						<ele>172</ele>
						<time>2021-02-03T14:05:48Z</time>
					</trkpt>
					<trkpt lat="46.776180" lon="4.876360">
						<ele>172</ele>
						<time>2021-02-03T14:05:50Z</time>
					</trkpt>
					<trkpt lat="46.777130" lon="4.875780">
						<ele>172</ele>
						<time>2021-02-03T14:06:09Z</time>
					</trkpt>
					<trkpt lat="46.777190" lon="4.875840">
						<ele>172</ele>
						<time>2021-02-03T14:06:10Z</time>
					</trkpt>
					<trkpt lat="46.777260" lon="4.875870">
						<ele>172</ele>
						<time>2021-02-03T14:06:11Z</time>
					</trkpt>
					<trkpt lat="46.777310" lon="4.875950">
						<ele>173</ele>
						<time>2021-02-03T14:06:13Z</time>
					</trkpt>
					<trkpt lat="46.777240" lon="4.876470">
						<ele>173</ele>
						<time>2021-02-03T14:06:19Z</time>
					</trkpt>
					<trkpt lat="46.777250" lon="4.876590">
						<ele>174</ele>
						<time>2021-02-03T14:06:20Z</time>
					</trkpt>
					<trkpt lat="46.777280" lon="4.876630">
						<ele>174</ele>
						<time>2021-02-03T14:06:21Z</time>
					</trkpt>
					<trkpt lat="46.777590" lon="4.876690">
						<ele>174</ele>
						<time>2021-02-03T14:06:27Z</time>
					</trkpt>
					<trkpt lat="46.777660" lon="4.876850">
						<ele>174</ele>
						<time>2021-02-03T14:06:29Z</time>
					</trkpt>
					<trkpt lat="46.777750" lon="4.876950">
						<ele>174</ele>
						<time>2021-02-03T14:06:31Z</time>
					</trkpt>
					<trkpt lat="46.777960" lon="4.877000">
						<ele>174</ele>
						<time>2021-02-03T14:06:35Z</time>
					</trkpt>
					<trkpt lat="46.778300" lon="4.876960">
						<ele>173</ele>
						<time>2021-02-03T14:06:41Z</time>
					</trkpt>
					<trkpt lat="46.779000" lon="4.876700">
						<ele>173</ele>
						<time>2021-02-03T14:06:54Z</time>
					</trkpt>
					<trkpt lat="46.779570" lon="4.876400">
						<ele>174</ele>
						<time>2021-02-03T14:07:05Z</time>
					</trkpt>
					<trkpt lat="46.780280" lon="4.875830">
						<ele>173</ele>
						<time>2021-02-03T14:07:19Z</time>
					</trkpt>
					<trkpt lat="46.780230" lon="4.875700">
						<ele>173</ele>
						<time>2021-02-03T14:07:21Z</time>
					</trkpt>
					<trkpt lat="46.780170" lon="4.875400">
						<ele>173</ele>
						<time>2021-02-03T14:07:25Z</time>
					</trkpt>
					<trkpt lat="46.779560" lon="4.870930">
						<ele>173</ele>
						<time>2021-02-03T14:08:20Z</time>
					</trkpt>
					<trkpt lat="46.779430" lon="4.870510">
						<ele>173</ele>
						<time>2021-02-03T14:08:26Z</time>
					</trkpt>
					<trkpt lat="46.779030" lon="4.869780">
						<ele>174</ele>
						<time>2021-02-03T14:08:37Z</time>
					</trkpt>
					<trkpt lat="46.778930" lon="4.869450">
						<ele>175</ele>
						<time>2021-02-03T14:08:42Z</time>
					</trkpt>
					<trkpt lat="46.778900" lon="4.869200">
						<ele>176</ele>
						<time>2021-02-03T14:08:45Z</time>
					</trkpt>
					<trkpt lat="46.778900" lon="4.868610">
						<ele>177</ele>
						<time>2021-02-03T14:08:52Z</time>
					</trkpt>
					<trkpt lat="46.778820" lon="4.867160">
						<ele>177</ele>
						<time>2021-02-03T14:09:10Z</time>
					</trkpt>
					<trkpt lat="46.778640" lon="4.867120">
						<ele>177</ele>
						<time>2021-02-03T14:09:13Z</time>
					</trkpt>
					<trkpt lat="46.779100" lon="4.863520">
						<ele>177</ele>
						<time>2021-02-03T14:09:57Z</time>
					</trkpt>
					<trkpt lat="46.779260" lon="4.862710">
						<ele>179</ele>
						<time>2021-02-03T14:10:08Z</time>
					</trkpt>
					<trkpt lat="46.779300" lon="4.862630">
						<ele>179</ele>
						<time>2021-02-03T14:10:09Z</time>
					</trkpt>
					<trkpt lat="46.780090" lon="4.862010">
						<ele>178</ele>
						<time>2021-02-03T14:10:25Z</time>
					</trkpt>
					<trkpt lat="46.780160" lon="4.861930">
						<ele>178</ele>
						<time>2021-02-03T14:10:26Z</time>
					</trkpt>
					<trkpt lat="46.780190" lon="4.861720">
						<ele>178</ele>
						<time>2021-02-03T14:10:29Z</time>
					</trkpt>
					<trkpt lat="46.780110" lon="4.861050">
						<ele>177</ele>
						<time>2021-02-03T14:10:37Z</time>
					</trkpt>
					<trkpt lat="46.780200" lon="4.860320">
						<ele>177</ele>
						<time>2021-02-03T14:10:46Z</time>
					</trkpt>
					<trkpt lat="46.780190" lon="4.860020">
						<ele>177</ele>
						<time>2021-02-03T14:10:50Z</time>
					</trkpt>
					<trkpt lat="46.780060" lon="4.859280">
						<ele>176</ele>
						<time>2021-02-03T14:10:59Z</time>
					</trkpt>
					<trkpt lat="46.780890" lon="4.858330">
						<ele>184</ele>
						<time>2021-02-03T14:11:18Z</time>
					</trkpt>
					<trkpt lat="46.779820" lon="4.855690">
						<ele>177</ele>
						<time>2021-02-03T14:11:55Z</time>
					</trkpt>
					</trkseg>
				</trk>
			</gpx>